Observation data for Saint Lawrence on 03/05/2021      Previous  Date  Next       Current Mesonet Observations  Soil Data  Daily Summary Page  Observations in Plain Language
KST1 050600Z 27008KT 10/M08 A2999 RMK A01 T01001081  RH  027%=      5-min Rain = 0
KST1 050601Z 27008KT 10/M08 A2999 RMK A01 T01001081  RH  027%=      5-min Rain = 0
KST1 050602Z 27008KT 10/M08 A2999 RMK A01 T01001081  RH  027%=      5-min Rain = 0
KST1 050603Z 27009KT 10/M08 A2998 RMK A01 T01001081  RH  027%=      5-min Rain = 0
KST1 050604Z 27010KT 10/M08 A2998 RMK A01 T01001082  RH  027%=      5-min Rain = 0
KST1 050605Z 27010KT 10/M08 A2998 RMK A01 T01011082  RH  027%=      5-min Rain = 0
KST1 050606Z 28011KT 10/M08 A2998 RMK A01 T01021083  RH  026%=      5-min Rain = 0
KST1 050607Z 28011KT 10/M09 A2998 RMK A01 T01041085  RH  026%=      5-min Rain = 0
KST1 050608Z 29011KT 10/M09 A2999 RMK A01 T01041086  RH  025%=      5-min Rain = 0
KST1 050609Z 29011KT 10/M09 A2999 RMK A01 T01041086  RH  025%=      5-min Rain = 0
KST1 050610Z 29011KT 10/M09 A2999 RMK A01 T01041086  RH  025%=      5-min Rain = 0
KST1 050611Z 29012KT 10/M09 A2999 RMK A01 T01031086  RH  025%=      5-min Rain = 0
KST1 050612Z 29012KT 10/M09 A2999 RMK A01 T01031087  RH  025%=      5-min Rain = 0
KST1 050613Z 30011KT 10/M09 A30 RMK A01 T01041089  RH  025%=      5-min Rain = 0
KST1 050614Z 32009KT 10/M09 A30 RMK A01 T01031086  RH  026%=      5-min Rain = 0
KST1 050615Z 30009KT 10/M09 A30 RMK A01 T01011086  RH  026%=      5-min Rain = 0
KST1 050616Z 30010KT 10/M09 A30 RMK A01 T01001086  RH  026%=      5-min Rain = 0
KST1 050617Z 30010KT 10/M09 A30 RMK A01 T00991086  RH  026%=      5-min Rain = 0
KST1 050618Z 30010KT 10/M09 A30 RMK A01 T01001088  RH  026%=      5-min Rain = 0
KST1 050619Z 31011KT 10/M09 A30 RMK A01 T01011088  RH  026%=      5-min Rain = 0
KST1 050620Z 31010KT 10/M09 A2999 RMK A01 T01021089  RH  025%=      5-min Rain = 0
KST1 050621Z 31011KT 10/M09 A30 RMK A01 T01041088  RH  025%=      5-min Rain = 0
KST1 050622Z 31011KT 11/M09 A30 RMK A01 T01051088  RH  025%=      5-min Rain = 0
KST1 050623Z 31012KT 11/M09 A30 RMK A01 T01051088  RH  025%=      5-min Rain = 0
KST1 050624Z 31013KT 11/M09 A30 RMK A01 T01061089  RH  024%=      5-min Rain = 0
KST1 050625Z 32011KT 11/M09 A30 RMK A01 T01081089  RH  024%=      5-min Rain = 0
KST1 050626Z 32011KT 11/M09 A30 RMK A01 T01101088  RH  024%=      5-min Rain = 0
KST1 050627Z 31011KT 11/M09 A30 RMK A01 T01111088  RH  024%=      5-min Rain = 0
KST1 050628Z 31011KT 11/M09 A30 RMK A01 T01111088  RH  024%=      5-min Rain = 0
KST1 050629Z 31011KT 11/M09 A30 RMK A01 T01111087  RH  024%=      5-min Rain = 0
KST1 050630Z 31010KT 11/M09 A30 RMK A01 T01111087  RH  024%=      5-min Rain = 0
KST1 050631Z 31010KT 11/M09 A30 RMK A01 T01111086  RH  024%=      5-min Rain = 0
KST1 050632Z 31010KT 11/M09 A30 RMK A01 T01101086  RH  024%=      5-min Rain = 0
KST1 050633Z 31010KT 11/M09 A30 RMK A01 T01101086  RH  024%=      5-min Rain = 0
KST1 050634Z 32011KT 11/M09 A30 RMK A01 T01101086  RH  024%=      5-min Rain = 0
KST1 050635Z 31011KT 11/M09 A30 RMK A01 T01111087  RH  024%=      5-min Rain = 0
KST1 050636Z 31011KT 11/M09 A30 RMK A01 T01131087  RH  024%=      5-min Rain = 0
KST1 050637Z 31010KT 11/M09 A30 RMK A01 T01141087  RH  023%=      5-min Rain = 0
KST1 050638Z 31010KT 12/M09 A30 RMK A01 T01151087  RH  024%=      5-min Rain = 0
KST1 050639Z 31009KT 11/M09 A30 RMK A01 T01141086  RH  024%=      5-min Rain = 0
KST1 050640Z 31010KT 11/M09 A30 RMK A01 T01131086  RH  024%=      5-min Rain = 0
KST1 050641Z 31010KT 11/M09 A30 RMK A01 T01121085  RH  024%=      5-min Rain = 0
KST1 050642Z 31010KT 11/M09 A30 RMK A01 T01101085  RH  025%=      5-min Rain = 0
KST1 050643Z 31010KT 11/M09 A30 RMK A01 T01101086  RH  024%=      5-min Rain = 0
KST1 050644Z 31010KT 11/M09 A30 RMK A01 T01101085  RH  025%=      5-min Rain = 0
KST1 050645Z 31010KT 11/M09 A30 RMK A01 T01091086  RH  025%=      5-min Rain = 0
KST1 050646Z 30010KT 11/M09 A30 RMK A01 T01081085  RH  025%=      5-min Rain = 0
KST1 050647Z 31010KT 11/M08 A30 RMK A01 T01071084  RH  025%=      5-min Rain = 0
KST1 050648Z 31009KT 11/M09 A30 RMK A01 T01061085  RH  025%=      5-min Rain = 0
KST1 050649Z 31009KT 11/M08 A30 RMK A01 T01061084  RH  025%=      5-min Rain = 0
KST1 050650Z 31008KT 11/M08 A30 RMK A01 T01061084  RH  026%=      5-min Rain = 0
KST1 050651Z 31007KT 10/M08 A30 RMK A01 T01041083  RH  026%=      5-min Rain = 0
KST1 050652Z 32007KT 10/M08 A30 RMK A01 T01031082  RH  026%=      5-min Rain = 0
KST1 050653Z 32007KT 10/M08 A30 RMK A01 T01011082  RH  027%=      5-min Rain = 0
KST1 050654Z 31007KT 10/M08 A30 RMK A01 T01001082  RH  027%=      5-min Rain = 0
KST1 050655Z 31008KT 10/M08 A30 RMK A01 T01001083  RH  027%=      5-min Rain = 0
KST1 050656Z 31008KT 10/M08 A30 RMK A01 T01001083  RH  027%=      5-min Rain = 0
KST1 050657Z 31008KT 10/M08 A30 RMK A01 T00991083  RH  027%=      5-min Rain = 0
KST1 050658Z 31009KT 10/M08 A30 RMK A01 T00981083  RH  027%=      5-min Rain = 0
KST1 050659Z 31009KT 10/M08 A30 RMK A01 T00971082  RH  027%=      5-min Rain = 0
KST1 050700Z 31008KT 10/M08 A30 RMK A01 T00971082  RH  028%=      5-min Rain = 0
KST1 050701Z 32008KT 10/M08 A30 RMK A01 T00961082  RH  028%=      5-min Rain = 0
KST1 050702Z 31008KT 10/M08 A30 RMK A01 T00951082  RH  028%=      5-min Rain = 0
KST1 050703Z 31008KT 09/M08 A30 RMK A01 T00941082  RH  028%=      5-min Rain = 0
KST1 050704Z 31007KT 09/M08 A30 RMK A01 T00931081  RH  028%=      5-min Rain = 0
KST1 050705Z 32008KT 09/M08 A30 RMK A01 T00921081  RH  029%=      5-min Rain = 0
KST1 050706Z 32008KT 09/M08 A30 RMK A01 T00901081  RH  029%=      5-min Rain = 0
KST1 050707Z 32008KT 09/M08 A30 RMK A01 T00901081  RH  029%=      5-min Rain = 0
KST1 050708Z 32008KT 09/M08 A30 RMK A01 T00901081  RH  029%=      5-min Rain = 0
KST1 050709Z 32008KT 09/M08 A30 RMK A01 T00891080  RH  029%=      5-min Rain = 0
KST1 050710Z 32007KT 09/M08 A30 RMK A01 T00881080  RH  030%=      5-min Rain = 0
KST1 050711Z 31008KT 09/M08 A30 RMK A01 T00871080  RH  030%=      5-min Rain = 0
KST1 050712Z 32008KT 09/M08 A30 RMK A01 T00871080  RH  030%=      5-min Rain = 0
KST1 050713Z 33008KT 09/M08 A30 RMK A01 T00881079  RH  030%=      5-min Rain = 0
KST1 050714Z 32008KT 09/M08 A30 RMK A01 T00891079  RH  030%=      5-min Rain = 0
KST1 050715Z 32007KT 09/M08 A3001 RMK A01 T00901078  RH  030%=      5-min Rain = 0
KST1 050716Z 32008KT 09/M08 A3001 RMK A01 T00901078  RH  030%=      5-min Rain = 0
KST1 050717Z 33009KT 09/M08 A3001 RMK A01 T00911078  RH  030%=      5-min Rain = 0
KST1 050718Z 33009KT 10/M07 A3001 RMK A01 T00971074  RH  029%=      5-min Rain = 0
KST1 050719Z 33009KT 10/M07 A3001 RMK A01 T01031071  RH  029%=      5-min Rain = 0
KST1 050720Z 33008KT 11/M07 A3001 RMK A01 T01051070  RH  029%=      5-min Rain = 0
KST1 050721Z 33007KT 10/M07 A30 RMK A01 T01041070  RH  029%=      5-min Rain = 0
KST1 050722Z 33007KT 10/M07 A30 RMK A01 T01031071  RH  029%=      5-min Rain = 0
KST1 050723Z 33008KT 11/M07 A30 RMK A01 T01051069  RH  029%=      5-min Rain = 0
KST1 050724Z 33007KT 11/M07 A30 RMK A01 T01081068  RH  028%=      5-min Rain = 0
KST1 050725Z 32006KT 11/M07 A30 RMK A01 T01081068  RH  028%=      5-min Rain = 0
KST1 050726Z 32006KT 11/M07 A30 RMK A01 T01061069  RH  029%=      5-min Rain = 0
KST1 050727Z 32007KT 10/M07 A30 RMK A01 T01041069  RH  029%=      5-min Rain = 0
KST1 050728Z 32007KT 10/M07 A30 RMK A01 T01031068  RH  029%=      5-min Rain = 0
KST1 050729Z 32007KT 10/M07 A30 RMK A01 T01011067  RH  030%=      5-min Rain = 0
KST1 050730Z 32007KT 10/M07 A3001 RMK A01 T01001066  RH  030%=      5-min Rain = 0
KST1 050731Z 31007KT 10/M07 A3001 RMK A01 T01001065  RH  031%=      5-min Rain = 0
KST1 050732Z 31008KT 10/M06 A3001 RMK A01 T01001064  RH  031%=      5-min Rain = 0
KST1 050733Z 31009KT 10/M06 A3001 RMK A01 T01001062  RH  031%=      5-min Rain = 0
KST1 050734Z 31009KT 10/M06 A3001 RMK A01 T01011060  RH  032%=      5-min Rain = 0
KST1 050735Z 31009KT 10/M06 A3001 RMK A01 T01021058  RH  032%=      5-min Rain = 0
KST1 050736Z 31010KT 10/M06 A3001 RMK A01 T01041056  RH  032%=      5-min Rain = 0
KST1 050737Z 31010KT 11/M06 A3001 RMK A01 T01061056  RH  032%=      5-min Rain = 0
KST1 050738Z 31010KT 11/M06 A3001 RMK A01 T01071055  RH  031%=      5-min Rain = 0
KST1 050739Z 31010KT 11/M06 A3001 RMK A01 T01071055  RH  031%=      5-min Rain = 0
KST1 050740Z 31010KT 11/M06 A3001 RMK A01 T01081055  RH  031%=      5-min Rain = 0
KST1 050741Z 31011KT 11/M06 A3001 RMK A01 T01081055  RH  032%=      5-min Rain = 0
KST1 050742Z 31010KT 11/M06 A3001 RMK A01 T01081055  RH  031%=      5-min Rain = 0
KST1 050743Z 31010KT 11/M05 A3001 RMK A01 T01081054  RH  032%=      5-min Rain = 0
KST1 050744Z 31010KT 11/M05 A3001 RMK A01 T01081054  RH  032%=      5-min Rain = 0
KST1 050745Z 31011KT 11/M05 A3001 RMK A01 T01081054  RH  032%=      5-min Rain = 0
KST1 050746Z 31012KT 11/M05 A3001 RMK A01 T01071054  RH  032%=      5-min Rain = 0
KST1 050747Z 31011KT 11/M05 A3001 RMK A01 T01101053  RH  031%=      5-min Rain = 0
KST1 050748Z 32011KT 11/M05 A3001 RMK A01 T01131053  RH  031%=      5-min Rain = 0
KST1 050749Z 31010KT 11/M05 A3001 RMK A01 T01141052  RH  031%=      5-min Rain = 0
KST1 050750Z 31010KT 11/M05 A3001 RMK A01 T01141052  RH  031%=      5-min Rain = 0
KST1 050751Z 31009KT 11/M05 A3001 RMK A01 T01141052  RH  031%=      5-min Rain = 0
KST1 050752Z 31009KT 11/M05 A3001 RMK A01 T01121052  RH  031%=      5-min Rain = 0
KST1 050753Z 31009KT 11/M05 A3001 RMK A01 T01101053  RH  031%=      5-min Rain = 0
KST1 050754Z 31009KT 11/M05 A3001 RMK A01 T01091053  RH  032%=      5-min Rain = 0
KST1 050755Z 31009KT 11/M05 A3001 RMK A01 T01081053  RH  032%=      5-min Rain = 0
KST1 050756Z 31008KT 11/M05 A3001 RMK A01 T01051053  RH  033%=      5-min Rain = 0
KST1 050757Z 30009KT 10/M05 A3001 RMK A01 T01031053  RH  033%=      5-min Rain = 0
KST1 050758Z 30009KT 10/M05 A3001 RMK A01 T01001053  RH  033%=      5-min Rain = 0
KST1 050759Z 30009KT 10/M05 A3001 RMK A01 T00981054  RH  034%=      5-min Rain = 0
KST1 050800Z 30009KT 10/M05 A3001 RMK A01 T00971054  RH  034%=      5-min Rain = 0
KST1 050801Z 30009KT 10/M05 A3001 RMK A01 T00961054  RH  034%=      5-min Rain = 0
KST1 050802Z 30009KT 10/M06 A3001 RMK A01 T00951055  RH  034%=      5-min Rain = 0
KST1 050803Z 30010KT 09/M06 A3001 RMK A01 T00941055  RH  034%=      5-min Rain = 0
KST1 050804Z 30010KT 09/M06 A3001 RMK A01 T00931056  RH  034%=      5-min Rain = 0
KST1 050805Z 31009KT 09/M06 A3001 RMK A01 T00941057  RH  034%=      5-min Rain = 0
KST1 050806Z 31008KT 09/M06 A3001 RMK A01 T00941056  RH  034%=      5-min Rain = 0
KST1 050807Z 31009KT 09/M06 A3001 RMK A01 T00931056  RH  034%=      5-min Rain = 0
KST1 050808Z 31009KT 09/M06 A3001 RMK A01 T00921057  RH  034%=      5-min Rain = 0
KST1 050809Z 30009KT 09/M06 A3001 RMK A01 T00921057  RH  034%=      5-min Rain = 0
KST1 050810Z 30009KT 09/M06 A3001 RMK A01 T00911057  RH  035%=      5-min Rain = 0
KST1 050811Z 31008KT 09/M06 A3001 RMK A01 T00901057  RH  035%=      5-min Rain = 0
KST1 050812Z 31008KT 09/M06 A3001 RMK A01 T00891057  RH  035%=      5-min Rain = 0
KST1 050813Z 31008KT 09/M06 A3001 RMK A01 T00891058  RH  035%=      5-min Rain = 0
KST1 050814Z 31009KT 09/M06 A3001 RMK A01 T00881058  RH  035%=      5-min Rain = 0
KST1 050815Z 31009KT 09/M06 A3001 RMK A01 T00871058  RH  035%=      5-min Rain = 0
KST1 050816Z 31009KT 09/M06 A3001 RMK A01 T00861058  RH  036%=      5-min Rain = 0
KST1 050817Z 31009KT 09/M06 A3001 RMK A01 T00851058  RH  036%=      5-min Rain = 0
KST1 050818Z 31009KT 08/M06 A3001 RMK A01 T00841058  RH  036%=      5-min Rain = 0
KST1 050819Z 31008KT 08/M06 A3001 RMK A01 T00831058  RH  036%=      5-min Rain = 0
KST1 050820Z 31008KT 08/M06 A3001 RMK A01 T00821058  RH  037%=      5-min Rain = 0
KST1 050821Z 32009KT 08/M06 A3001 RMK A01 T00811058  RH  037%=      5-min Rain = 0
KST1 050822Z 32009KT 08/M06 A3001 RMK A01 T00811058  RH  037%=      5-min Rain = 0
KST1 050823Z 32009KT 08/M06 A3001 RMK A01 T00801058  RH  037%=      5-min Rain = 0
KST1 050824Z 32009KT 08/M06 A3001 RMK A01 T00801058  RH  037%=      5-min Rain = 0
KST1 050825Z 32008KT 08/M06 A3001 RMK A01 T00801059  RH  037%=      5-min Rain = 0
KST1 050826Z 32009KT 08/M06 A3001 RMK A01 T00791059  RH  037%=      5-min Rain = 0
KST1 050827Z 32009KT 08/M06 A3001 RMK A01 T00801060  RH  037%=      5-min Rain = 0
KST1 050828Z 32009KT 08/M06 A3001 RMK A01 T00801060  RH  036%=      5-min Rain = 0
KST1 050829Z 32008KT 08/M06 A3001 RMK A01 T00811059  RH  036%=      5-min Rain = 0
KST1 050830Z 32009KT 08/M06 A3001 RMK A01 T00811060  RH  036%=      5-min Rain = 0
KST1 050831Z 32008KT 08/M06 A3001 RMK A01 T00821060  RH  036%=      5-min Rain = 0
KST1 050832Z 32008KT 08/M06 A3001 RMK A01 T00821060  RH  036%=      5-min Rain = 0
KST1 050833Z 31008KT 08/M06 A3001 RMK A01 T00821060  RH  036%=      5-min Rain = 0
KST1 050834Z 31008KT 08/M06 A3001 RMK A01 T00821060  RH  036%=      5-min Rain = 0
KST1 050835Z 31007KT 08/M06 A3001 RMK A01 T00821061  RH  036%=      5-min Rain = 0
KST1 050836Z 31007KT 08/M06 A3001 RMK A01 T00821061  RH  036%=      5-min Rain = 0
KST1 050837Z 31007KT 08/M06 A3001 RMK A01 T00821061  RH  036%=      5-min Rain = 0
KST1 050838Z 31007KT 08/M06 A3001 RMK A01 T00811061  RH  036%=      5-min Rain = 0
KST1 050839Z 30007KT 08/M06 A3001 RMK A01 T00801061  RH  036%=      5-min Rain = 0
KST1 050840Z 30008KT 08/M06 A3001 RMK A01 T00791061  RH  036%=      5-min Rain = 0
KST1 050841Z 30008KT 08/M06 A3001 RMK A01 T00791060  RH  037%=      5-min Rain = 0
KST1 050842Z 30009KT 08/M06 A3001 RMK A01 T00791060  RH  037%=      5-min Rain = 0
KST1 050843Z 30009KT 08/M06 A3001 RMK A01 T00791060  RH  037%=      5-min Rain = 0
KST1 050844Z 30009KT 08/M06 A3001 RMK A01 T00791060  RH  037%=      5-min Rain = 0
KST1 050845Z 30009KT 08/M06 A3001 RMK A01 T00791060  RH  037%=      5-min Rain = 0
KST1 050846Z 30009KT 08/M06 A3001 RMK A01 T00801060  RH  037%=      5-min Rain = 0
KST1 050847Z 30008KT 08/M06 A3001 RMK A01 T00801059  RH  037%=      5-min Rain = 0
KST1 050848Z 29008KT 08/M06 A3001 RMK A01 T00801059  RH  037%=      5-min Rain = 0
KST1 050849Z 29008KT 08/M06 A3001 RMK A01 T00801059  RH  037%=      5-min Rain = 0
KST1 050850Z 29009KT 08/M06 A3001 RMK A01 T00801059  RH  037%=      5-min Rain = 0
KST1 050851Z 29008KT 08/M06 A3001 RMK A01 T00821058  RH  037%=      5-min Rain = 0
KST1 050852Z 29009KT 09/M06 A3001 RMK A01 T00851058  RH  036%=      5-min Rain = 0
KST1 050853Z 29008KT 09/M06 A3001 RMK A01 T00861058  RH  036%=      5-min Rain = 0
KST1 050854Z 30009KT 09/M06 A3001 RMK A01 T00871057  RH  036%=      5-min Rain = 0
KST1 050855Z 30009KT 09/M06 A3001 RMK A01 T00861057  RH  036%=      5-min Rain = 0
KST1 050856Z 30009KT 09/M06 A3001 RMK A01 T00851058  RH  036%=      5-min Rain = 0
KST1 050857Z 30010KT 08/M06 A3001 RMK A01 T00841058  RH  036%=      5-min Rain = 0
KST1 050858Z 30009KT 08/M06 A3001 RMK A01 T00841058  RH  036%=      5-min Rain = 0
KST1 050859Z 30009KT 09/M06 A3001 RMK A01 T00851057  RH  036%=      5-min Rain = 0
KST1 050900Z 30009KT 09/M06 A3001 RMK A01 T00851058  RH  036%=      5-min Rain = 0
KST1 050901Z 30009KT 09/M06 A3001 RMK A01 T00851057  RH  036%=      5-min Rain = 0
KST1 050902Z 30009KT 09/M06 A3001 RMK A01 T00851057  RH  036%=      5-min Rain = 0
KST1 050903Z 30009KT 09/M06 A3001 RMK A01 T00851057  RH  036%=      5-min Rain = 0
KST1 050904Z 30010KT 08/M06 A3001 RMK A01 T00841057  RH  036%=      5-min Rain = 0
KST1 050905Z 30010KT 09/M06 A3001 RMK A01 T00851056  RH  036%=      5-min Rain = 0
KST1 050906Z 30010KT 09/M06 A3001 RMK A01 T00861056  RH  036%=      5-min Rain = 0
KST1 050907Z 30010KT 09/M06 A3001 RMK A01 T00881056  RH  036%=      5-min Rain = 0
KST1 050908Z 30010KT 09/M06 A3001 RMK A01 T00881056  RH  036%=      5-min Rain = 0
KST1 050909Z 30011KT 09/M06 A3001 RMK A01 T00881055  RH  036%=      5-min Rain = 0
KST1 050910Z 30010KT 09/M05 A3001 RMK A01 T00891054  RH  036%=      5-min Rain = 0
KST1 050911Z 30011KT 09/M05 A3001 RMK A01 T00901054  RH  036%=      5-min Rain = 0
KST1 050912Z 30011KT 09/M05 A3001 RMK A01 T00911054  RH  035%=      5-min Rain = 0
KST1 050913Z 30011KT 09/M05 A3001 RMK A01 T00931053  RH  035%=      5-min Rain = 0
KST1 050914Z 30011KT 09/M05 A3001 RMK A01 T00931053  RH  035%=      5-min Rain = 0
KST1 050915Z 30011KT 10/M05 A3001 RMK A01 T00951053  RH  035%=      5-min Rain = 0
KST1 050916Z 30011KT 10/M05 A3001 RMK A01 T00961053  RH  035%=      5-min Rain = 0
KST1 050917Z 30011KT 10/M05 A3001 RMK A01 T00961053  RH  034%=      5-min Rain = 0
KST1 050918Z 30011KT 10/M05 A3001 RMK A01 T00961053  RH  035%=      5-min Rain = 0
KST1 050919Z 30011KT 10/M05 A3001 RMK A01 T00951053  RH  035%=      5-min Rain = 0
KST1 050920Z 30010KT 09/M05 A3001 RMK A01 T00941053  RH  035%=      5-min Rain = 0
KST1 050921Z 30011KT 09/M05 A3001 RMK A01 T00941053  RH  035%=      5-min Rain = 0
KST1 050922Z 30010KT 09/M05 A3001 RMK A01 T00941053  RH  035%=      5-min Rain = 0
KST1 050923Z 30011KT 09/M05 A3001 RMK A01 T00941053  RH  035%=      5-min Rain = 0
KST1 050924Z 30011KT 09/M05 A3001 RMK A01 T00941053  RH  035%=      5-min Rain = 0
KST1 050925Z 30011KT 09/M05 A3001 RMK A01 T00941053  RH  035%=      5-min Rain = 0
KST1 050926Z 30011KT 10/M05 A3001 RMK A01 T00951053  RH  035%=      5-min Rain = 0
KST1 050927Z 30011KT 10/M05 A3001 RMK A01 T00961053  RH  035%=      5-min Rain = 0
KST1 050928Z 30011KT 10/M05 A3001 RMK A01 T00961053  RH  035%=      5-min Rain = 0
KST1 050929Z 30010KT 10/M05 A3001 RMK A01 T00961052  RH  035%=      5-min Rain = 0
KST1 050930Z 30010KT 09/M05 A3001 RMK A01 T00941052  RH  035%=      5-min Rain = 0
KST1 050931Z 30010KT 09/M05 A3001 RMK A01 T00941051  RH  035%=      5-min Rain = 0
KST1 050932Z 30010KT 09/M05 A3001 RMK A01 T00931051  RH  036%=      5-min Rain = 0
KST1 050933Z 30010KT 09/M05 A3001 RMK A01 T00931051  RH  036%=      5-min Rain = 0
KST1 050934Z 30010KT 09/M05 A3001 RMK A01 T00931050  RH  036%=      5-min Rain = 0
KST1 050935Z 30011KT 09/M05 A3001 RMK A01 T00941050  RH  036%=      5-min Rain = 0
KST1 050936Z 31011KT 09/M05 A3001 RMK A01 T00941050  RH  036%=      5-min Rain = 0
KST1 050937Z 30011KT 09/M05 A3001 RMK A01 T00941050  RH  036%=      5-min Rain = 0
KST1 050938Z 30011KT 10/M05 A3001 RMK A01 T00951050  RH  036%=      5-min Rain = 0
KST1 050939Z 30011KT 10/M05 A3001 RMK A01 T00951049  RH  036%=      5-min Rain = 0
KST1 050940Z 30012KT 10/M05 A3001 RMK A01 T00961049  RH  036%=      5-min Rain = 0
KST1 050941Z 31010KT 10/M05 A3001 RMK A01 T00971048  RH  036%=      5-min Rain = 0
KST1 050942Z 30009KT 10/M05 A3001 RMK A01 T00981048  RH  035%=      5-min Rain = 0
KST1 050943Z 31009KT 10/M05 A3001 RMK A01 T00981048  RH  035%=      5-min Rain = 0
KST1 050944Z 30010KT 10/M05 A3001 RMK A01 T00971048  RH  036%=      5-min Rain = 0
KST1 050945Z 30009KT 10/M05 A3001 RMK A01 T00971048  RH  035%=      5-min Rain = 0
KST1 050946Z 30010KT 10/M05 A3001 RMK A01 T00971049  RH  035%=      5-min Rain = 0
KST1 050947Z 30010KT 10/M05 A3001 RMK A01 T00961049  RH  036%=      5-min Rain = 0
KST1 050948Z 30009KT 10/M05 A3001 RMK A01 T00961049  RH  035%=      5-min Rain = 0
KST1 050949Z 30010KT 10/M05 A3001 RMK A01 T00951049  RH  036%=      5-min Rain = 0
KST1 050950Z 30010KT 10/M05 A3001 RMK A01 T00951049  RH  036%=      5-min Rain = 0
KST1 050951Z 30009KT 10/M05 A3001 RMK A01 T00971048  RH  036%=      5-min Rain = 0
KST1 050952Z 30011KT 10/M05 A3001 RMK A01 T00981048  RH  035%=      5-min Rain = 0
KST1 050953Z 30010KT 10/M05 A3001 RMK A01 T00991048  RH  035%=      5-min Rain = 0
KST1 050954Z 30010KT 10/M05 A3001 RMK A01 T01001048  RH  035%=      5-min Rain = 0
KST1 050955Z 30010KT 10/M05 A3001 RMK A01 T01001048  RH  035%=      5-min Rain = 0
KST1 050956Z 31012G18KT 10/M05 A3001 RMK A01 T01011048  RH  035%=      5-min Rain = 0
KST1 050957Z 31013G19KT 10/M05 A3001 RMK A01 T01031047  RH  034%=      5-min Rain = 0
KST1 050958Z 30012KT 10/M05 A3001 RMK A01 T01041047  RH  034%=      5-min Rain = 0
KST1 050959Z 30011KT 10/M05 A3001 RMK A01 T01041047  RH  034%=      5-min Rain = 0
KST1 051000Z 30011KT 10/M05 A3001 RMK A01 T01021047  RH  035%=      5-min Rain = 0
KST1 051001Z 30011KT 10/M05 A3001 RMK A01 T01011047  RH  035%=      5-min Rain = 0
KST1 051002Z 30011KT 10/M05 A3001 RMK A01 T01011047  RH  035%=      5-min Rain = 0
KST1 051003Z 30012KT 10/M05 A3001 RMK A01 T01011048  RH  035%=      5-min Rain = 0
KST1 051004Z 30012KT 10/M05 A3001 RMK A01 T01021048  RH  035%=      5-min Rain = 0
KST1 051005Z 30011KT 10/M05 A3001 RMK A01 T01021047  RH  035%=      5-min Rain = 0
KST1 051006Z 30011KT 10/M05 A3001 RMK A01 T01011048  RH  035%=      5-min Rain = 0
KST1 051007Z 30011KT 10/M05 A3001 RMK A01 T01001048  RH  035%=      5-min Rain = 0
KST1 051008Z 30012KT 10/M05 A3001 RMK A01 T01001048  RH  035%=      5-min Rain = 0
KST1 051009Z 30012KT 10/M05 A3001 RMK A01 T01011047  RH  035%=      5-min Rain = 0
KST1 051010Z 30012KT 10/M05 A3001 RMK A01 T01021048  RH  035%=      5-min Rain = 0
KST1 051011Z 30010KT 10/M05 A3001 RMK A01 T01031048  RH  034%=      5-min Rain = 0
KST1 051012Z 30010KT 10/M05 A3001 RMK A01 T01021047  RH  035%=      5-min Rain = 0
KST1 051013Z 30010KT 10/M05 A3001 RMK A01 T01001048  RH  035%=      5-min Rain = 0
KST1 051014Z 30011KT 10/M05 A3001 RMK A01 T01001048  RH  035%=      5-min Rain = 0
KST1 051015Z 30010KT 10/M05 A3001 RMK A01 T01011048  RH  035%=      5-min Rain = 0
KST1 051016Z 30011KT 10/M05 A3001 RMK A01 T01021048  RH  035%=      5-min Rain = 0
KST1 051017Z 30010KT 10/M05 A3001 RMK A01 T01001048  RH  035%=      5-min Rain = 0
KST1 051018Z 29010KT 10/M05 A3001 RMK A01 T00991048  RH  035%=      5-min Rain = 0
KST1 051019Z 29010KT 10/M05 A3001 RMK A01 T00971049  RH  035%=      5-min Rain = 0
KST1 051020Z 29010KT 10/M05 A3001 RMK A01 T00971049  RH  035%=      5-min Rain = 0
KST1 051021Z 30009KT 10/M05 A3001 RMK A01 T00961049  RH  036%=      5-min Rain = 0
KST1 051022Z 29009KT 10/M05 A3001 RMK A01 T00961048  RH  036%=      5-min Rain = 0
KST1 051023Z 30010KT 10/M05 A3001 RMK A01 T00951048  RH  036%=      5-min Rain = 0
KST1 051024Z 29010KT 10/M05 A3001 RMK A01 T00951049  RH  036%=      5-min Rain = 0
KST1 051025Z 29010KT 10/M05 A3001 RMK A01 T00961049  RH  036%=      5-min Rain = 0
KST1 051026Z 30009KT 10/M05 A3001 RMK A01 T00971049  RH  036%=      5-min Rain = 0
KST1 051027Z 30009KT 10/M05 A3001 RMK A01 T00961049  RH  036%=      5-min Rain = 0
KST1 051028Z 30009KT 10/M05 A3001 RMK A01 T00961049  RH  036%=      5-min Rain = 0
KST1 051029Z 30008KT 09/M05 A3001 RMK A01 T00941049  RH  036%=      5-min Rain = 0
KST1 051030Z 30009KT 09/M05 A3001 RMK A01 T00931049  RH  036%=      5-min Rain = 0
KST1 051031Z 30011KT 09/M05 A3001 RMK A01 T00931049  RH  036%=      5-min Rain = 0
KST1 051032Z 30009KT 09/M05 A3001 RMK A01 T00931048  RH  037%=      5-min Rain = 0
KST1 051033Z 30010KT 09/M05 A3001 RMK A01 T00931048  RH  037%=      5-min Rain = 0
KST1 051034Z 30010KT 09/M05 A3001 RMK A01 T00931047  RH  037%=      5-min Rain = 0
KST1 051035Z 30012G17KT 09/M05 A3002 RMK A01 T00931047  RH  037%=      5-min Rain = 0
KST1 051036Z 30012KT 09/M05 A3002 RMK A01 T00941046  RH  037%=      5-min Rain = 0
KST1 051037Z 30012KT 10/M05 A3002 RMK A01 T00961046  RH  036%=      5-min Rain = 0
KST1 051038Z 30011KT 10/M05 A3002 RMK A01 T00971046  RH  036%=      5-min Rain = 0
KST1 051039Z 30011KT 10/M05 A3002 RMK A01 T00971045  RH  036%=      5-min Rain = 0
KST1 051040Z 30011KT 10/M05 A3002 RMK A01 T00971045  RH  036%=      5-min Rain = 0
KST1 051041Z 30012KT 10/M05 A3002 RMK A01 T00981046  RH  036%=      5-min Rain = 0
KST1 051042Z 30011KT 10/M05 A3002 RMK A01 T00991045  RH  036%=      5-min Rain = 0
KST1 051043Z 30013KT 10/M05 A3002 RMK A01 T00981046  RH  036%=      5-min Rain = 0
KST1 051044Z 31013KT 10/M05 A3002 RMK A01 T00991046  RH  036%=      5-min Rain = 0
KST1 051045Z 31013KT 10/M05 A3002 RMK A01 T01001046  RH  036%=      5-min Rain = 0
KST1 051046Z 31013KT 10/M05 A3002 RMK A01 T01001046  RH  035%=      5-min Rain = 0
KST1 051047Z 31014KT 10/M05 A3002 RMK A01 T01001046  RH  035%=      5-min Rain = 0
KST1 051048Z 31013KT 10/M05 A3002 RMK A01 T01001046  RH  035%=      5-min Rain = 0
KST1 051049Z 31014KT 10/M05 A3002 RMK A01 T01001045  RH  036%=      5-min Rain = 0
KST1 051050Z 31014G20KT 10/M05 A3002 RMK A01 T01011045  RH  035%=      5-min Rain = 0
KST1 051051Z 31014KT 10/M05 A3002 RMK A01 T01031045  RH  035%=      5-min Rain = 0
KST1 051052Z 31013KT 10/M05 A3002 RMK A01 T01021045  RH  035%=      5-min Rain = 0
KST1 051053Z 31014KT 10/M05 A3002 RMK A01 T01011046  RH  035%=      5-min Rain = 0
KST1 051054Z 31014G19KT 10/M05 A3002 RMK A01 T01011046  RH  035%=      5-min Rain = 0
KST1 051055Z 31014KT 10/M05 A3002 RMK A01 T01021046  RH  035%=      5-min Rain = 0
KST1 051056Z 31014KT 10/M05 A3002 RMK A01 T01011046  RH  035%=      5-min Rain = 0
KST1 051057Z 31014KT 10/M05 A3002 RMK A01 T01001046  RH  035%=      5-min Rain = 0
KST1 051058Z 31015KT 10/M05 A3002 RMK A01 T01001046  RH  035%=      5-min Rain = 0
KST1 051059Z 31014KT 10/M05 A3002 RMK A01 T01001046  RH  035%=      5-min Rain = 0
KST1 051100Z 31015KT 10/M05 A3002 RMK A01 T01001046  RH  035%=      5-min Rain = 0
KST1 051101Z 31014KT 10/M05 A3002 RMK A01 T01001046  RH  035%=      5-min Rain = 0
KST1 051102Z 31014KT 10/M05 A3002 RMK A01 T01001046  RH  035%=      5-min Rain = 0
KST1 051103Z 31014KT 10/M05 A3002 RMK A01 T01001046  RH  035%=      5-min Rain = 0
KST1 051104Z 31014KT 10/M05 A3002 RMK A01 T01001046  RH  036%=      5-min Rain = 0
KST1 051105Z 31014KT 10/M05 A3002 RMK A01 T00991046  RH  036%=      5-min Rain = 0
KST1 051106Z 31014KT 10/M05 A3002 RMK A01 T00991046  RH  036%=      5-min Rain = 0
KST1 051107Z 31015KT 10/M05 A3002 RMK A01 T00991046  RH  036%=      5-min Rain = 0
KST1 051108Z 31015KT 10/M05 A3003 RMK A01 T00991046  RH  036%=      5-min Rain = 0
KST1 051109Z 31015KT 10/M05 A3003 RMK A01 T00991046  RH  036%=      5-min Rain = 0
KST1 051110Z 31015KT 10/M05 A3003 RMK A01 T00991046  RH  036%=      5-min Rain = 0
KST1 051111Z 31017KT 10/M05 A3002 RMK A01 T00991046  RH  036%=      5-min Rain = 0
KST1 051112Z 31016KT 10/M05 A3002 RMK A01 T01001047  RH  035%=      5-min Rain = 0
KST1 051113Z 31016KT 10/M05 A3003 RMK A01 T01001046  RH  035%=      5-min Rain = 0
KST1 051114Z 31016KT 10/M05 A3003 RMK A01 T01001046  RH  035%=      5-min Rain = 0
KST1 051115Z 31015KT 10/M05 A3003 RMK A01 T01001046  RH  035%=      5-min Rain = 0
KST1 051116Z 31015KT 10/M05 A3003 RMK A01 T01001046  RH  035%=      5-min Rain = 0
KST1 051117Z 31015KT 10/M05 A3003 RMK A01 T01011046  RH  035%=      5-min Rain = 0
KST1 051118Z 31015KT 10/M05 A3003 RMK A01 T01011047  RH  035%=      5-min Rain = 0
KST1 051119Z 31015KT 10/M05 A3003 RMK A01 T01011047  RH  035%=      5-min Rain = 0
KST1 051120Z 31015KT 10/M05 A3003 RMK A01 T01011046  RH  035%=      5-min Rain = 0
KST1 051121Z 31015KT 10/M05 A3003 RMK A01 T01011046  RH  035%=      5-min Rain = 0
KST1 051122Z 32015KT 10/M05 A3003 RMK A01 T01011046  RH  035%=      5-min Rain = 0
KST1 051123Z 31016KT 10/M05 A3003 RMK A01 T01011046  RH  035%=      5-min Rain = 0
KST1 051124Z 31016KT 10/M05 A3003 RMK A01 T01021046  RH  035%=      5-min Rain = 0
KST1 051125Z 31016KT 10/M05 A3003 RMK A01 T01021046  RH  035%=      5-min Rain = 0
KST1 051126Z 31015KT 10/M05 A3003 RMK A01 T01031046  RH  035%=      5-min Rain = 0
KST1 051127Z 31015KT 10/M05 A3003 RMK A01 T01031046  RH  035%=      5-min Rain = 0
KST1 051128Z 31014G19KT 10/M05 A3003 RMK A01 T01021046  RH  035%=      5-min Rain = 0
KST1 051129Z 31015KT 10/M05 A3003 RMK A01 T01011046  RH  035%=      5-min Rain = 0
KST1 051130Z 31014KT 10/M05 A3003 RMK A01 T01011046  RH  035%=      5-min Rain = 0
KST1 051131Z 31015KT 10/M05 A3003 RMK A01 T01021046  RH  035%=      5-min Rain = 0
KST1 051132Z 31014KT 10/M05 A3003 RMK A01 T01021046  RH  035%=      5-min Rain = 0
KST1 051133Z 31013KT 10/M05 A3003 RMK A01 T01011046  RH  035%=      5-min Rain = 0
KST1 051134Z 31013KT 10/M05 A3003 RMK A01 T01011046  RH  035%=      5-min Rain = 0
KST1 051135Z 31014KT 10/M05 A3003 RMK A01 T01001046  RH  035%=      5-min Rain = 0
KST1 051136Z 31013KT 10/M05 A3003 RMK A01 T01011046  RH  035%=      5-min Rain = 0
KST1 051137Z 31013KT 10/M05 A3003 RMK A01 T01021046  RH  035%=      5-min Rain = 0
KST1 051138Z 31013KT 10/M05 A3003 RMK A01 T01011046  RH  035%=      5-min Rain = 0
KST1 051139Z 31013KT 10/M05 A3004 RMK A01 T01001046  RH  036%=      5-min Rain = 0
KST1 051140Z 31013KT 10/M05 A3004 RMK A01 T00991046  RH  036%=      5-min Rain = 0
KST1 051141Z 31013KT 10/M05 A3004 RMK A01 T00991046  RH  036%=      5-min Rain = 0
KST1 051142Z 31014KT 10/M05 A3004 RMK A01 T00991045  RH  036%=      5-min Rain = 0
KST1 051143Z 31013KT 10/M05 A3004 RMK A01 T00991046  RH  036%=      5-min Rain = 0
KST1 051144Z 31013KT 10/M05 A3004 RMK A01 T00991046  RH  036%=      5-min Rain = 0
KST1 051145Z 31012KT 10/M05 A3004 RMK A01 T00991045  RH  036%=      5-min Rain = 0
KST1 051146Z 31013KT 10/M05 A3004 RMK A01 T00971046  RH  036%=      5-min Rain = 0
KST1 051147Z 31013KT 10/M05 A3004 RMK A01 T00971045  RH  036%=      5-min Rain = 0
KST1 051148Z 31012KT 10/M05 A3004 RMK A01 T00971045  RH  036%=      5-min Rain = 0
KST1 051149Z 31012KT 10/M05 A3004 RMK A01 T00961045  RH  037%=      5-min Rain = 0
KST1 051150Z 31013KT 10/M05 A3004 RMK A01 T00951046  RH  037%=      5-min Rain = 0
KST1 051151Z 31012KT 10/M05 A3004 RMK A01 T00981045  RH  036%=      5-min Rain = 0
KST1 051152Z 31011KT 10/M05 A3004 RMK A01 T00971045  RH  036%=      5-min Rain = 0
KST1 051153Z 31011KT 10/M05 A3004 RMK A01 T00961045  RH  037%=      5-min Rain = 0
KST1 051154Z 31011KT 10/M05 A3004 RMK A01 T00951045  RH  037%=      5-min Rain = 0
KST1 051155Z 31011KT 10/M05 A3004 RMK A01 T00951045  RH  037%=      5-min Rain = 0
KST1 051156Z 31011KT 10/M05 A3004 RMK A01 T00951045  RH  037%=      5-min Rain = 0
KST1 051157Z 31012KT 09/M05 A3004 RMK A01 T00941045  RH  037%=      5-min Rain = 0
KST1 051158Z 31011KT 09/M05 A3004 RMK A01 T00941045  RH  037%=      5-min Rain = 0
KST1 051159Z 31011KT 09/M05 A3004 RMK A01 T00941045  RH  037%=      5-min Rain = 0
KST1 051200Z 31012KT 09/M05 A3004 RMK A01 T00941045  RH  037%=      5-min Rain = 0
KST1 051201Z 31011KT 09/M05 A3004 RMK A01 T00941045  RH  037%=      5-min Rain = 0
KST1 051202Z 31011KT 09/M05 A3004 RMK A01 T00941045  RH  037%=      5-min Rain = 0
KST1 051203Z 31012KT 09/M05 A3004 RMK A01 T00941045  RH  037%=      5-min Rain = 0
KST1 051204Z 32011KT 09/M05 A3004 RMK A01 T00931045  RH  037%=      5-min Rain = 0
KST1 051205Z 32011KT 09/M05 A3004 RMK A01 T00931045  RH  038%=      5-min Rain = 0
KST1 051206Z 32011KT 09/M05 A3004 RMK A01 T00931045  RH  037%=      5-min Rain = 0
KST1 051207Z 31011KT 09/M05 A3004 RMK A01 T00931045  RH  037%=      5-min Rain = 0
KST1 051208Z 32011KT 09/M05 A3004 RMK A01 T00931045  RH  037%=      5-min Rain = 0
KST1 051209Z 31011KT 09/M05 A3004 RMK A01 T00921045  RH  038%=      5-min Rain = 0
KST1 051210Z 31010KT 09/M05 A3004 RMK A01 T00921045  RH  038%=      5-min Rain = 0
KST1 051211Z 32011KT 09/M05 A3004 RMK A01 T00911045  RH  038%=      5-min Rain = 0
KST1 051212Z 31010KT 09/M05 A3004 RMK A01 T00901045  RH  038%=      5-min Rain = 0
KST1 051213Z 32010KT 09/M05 A3004 RMK A01 T00911045  RH  038%=      5-min Rain = 0
KST1 051214Z 32010KT 09/M04 A3004 RMK A01 T00911044  RH  038%=      5-min Rain = 0
KST1 051215Z 32010KT 09/M04 A3004 RMK A01 T00901044  RH  038%=      5-min Rain = 0
KST1 051216Z 32010KT 09/M04 A3004 RMK A01 T00891044  RH  039%=      5-min Rain = 0
KST1 051217Z 31009KT 09/M04 A3005 RMK A01 T00891044  RH  039%=      5-min Rain = 0
KST1 051218Z 31010KT 09/M04 A3005 RMK A01 T00891044  RH  039%=      5-min Rain = 0
KST1 051219Z 31009KT 09/M04 A3004 RMK A01 T00881044  RH  039%=      5-min Rain = 0
KST1 051220Z 31009KT 09/M04 A3004 RMK A01 T00881044  RH  039%=      5-min Rain = 0
KST1 051221Z 32010KT 09/M04 A3004 RMK A01 T00881044  RH  039%=      5-min Rain = 0
KST1 051222Z 32010KT 09/M04 A3005 RMK A01 T00881044  RH  039%=      5-min Rain = 0
KST1 051223Z 32011KT 09/M04 A3005 RMK A01 T00881044  RH  039%=      5-min Rain = 0
KST1 051224Z 32011KT 09/M04 A3005 RMK A01 T00881044  RH  039%=      5-min Rain = 0
KST1 051225Z 32011KT 09/M04 A3005 RMK A01 T00881044  RH  039%=      5-min Rain = 0
KST1 051226Z 32012KT 09/M04 A3005 RMK A01 T00881044  RH  039%=      5-min Rain = 0
KST1 051227Z 32012KT 09/M04 A3005 RMK A01 T00901044  RH  039%=      5-min Rain = 0
KST1 051228Z 32011KT 09/M04 A3005 RMK A01 T00911044  RH  038%=      5-min Rain = 0
KST1 051229Z 32011KT 09/M04 A3005 RMK A01 T00911044  RH  038%=      5-min Rain = 0
KST1 051230Z 32011KT 09/M04 A3005 RMK A01 T00921043  RH  038%=      5-min Rain = 0
KST1 051231Z 32012KT 09/M04 A3005 RMK A01 T00911044  RH  038%=      5-min Rain = 0
KST1 051232Z 32011KT 09/M04 A3005 RMK A01 T00911043  RH  038%=      5-min Rain = 0
KST1 051233Z 32012KT 09/M04 A3005 RMK A01 T00911043  RH  038%=      5-min Rain = 0
KST1 051234Z 32012KT 09/M04 A3005 RMK A01 T00911043  RH  038%=      5-min Rain = 0
KST1 051235Z 32012KT 09/M04 A3005 RMK A01 T00901043  RH  039%=      5-min Rain = 0
KST1 051236Z 32012KT 09/M04 A3005 RMK A01 T00901042  RH  039%=      5-min Rain = 0
KST1 051237Z 32011KT 09/M04 A3005 RMK A01 T00911042  RH  039%=      5-min Rain = 0
KST1 051238Z 32011KT 09/M04 A3005 RMK A01 T00901042  RH  039%=      5-min Rain = 0
KST1 051239Z 32012KT 09/M04 A3005 RMK A01 T00901042  RH  039%=      5-min Rain = 0
KST1 051240Z 32012KT 09/M04 A3006 RMK A01 T00891042  RH  039%=      5-min Rain = 0
KST1 051241Z 32011KT 09/M04 A3006 RMK A01 T00891041  RH  040%=      5-min Rain = 0
KST1 051242Z 32012KT 09/M04 A3006 RMK A01 T00881041  RH  040%=      5-min Rain = 0
KST1 051243Z 32013KT 09/M04 A3006 RMK A01 T00881041  RH  040%=      5-min Rain = 0
KST1 051244Z 32012KT 09/M04 A3006 RMK A01 T00891041  RH  040%=      5-min Rain = 0
KST1 051245Z 32013KT 09/M04 A3006 RMK A01 T00891041  RH  040%=      5-min Rain = 0
KST1 051246Z 32012KT 09/M04 A3006 RMK A01 T00891040  RH  040%=      5-min Rain = 0
KST1 051247Z 32013KT 09/M04 A3006 RMK A01 T00881040  RH  040%=      5-min Rain = 0
KST1 051248Z 32013KT 09/M04 A3006 RMK A01 T00881040  RH  040%=      5-min Rain = 0
KST1 051249Z 32013KT 09/M04 A3006 RMK A01 T00881040  RH  040%=      5-min Rain = 0
KST1 051250Z 32013KT 09/M04 A3006 RMK A01 T00881040  RH  040%=      5-min Rain = 0
KST1 051251Z 32014KT 09/M04 A3006 RMK A01 T00881039  RH  040%=      5-min Rain = 0
KST1 051252Z 32013KT 09/M04 A3006 RMK A01 T00891039  RH  040%=      5-min Rain = 0
KST1 051253Z 32013KT 09/M04 A3006 RMK A01 T00891039  RH  040%=      5-min Rain = 0
KST1 051254Z 32014KT 09/M04 A3006 RMK A01 T00881039  RH  040%=      5-min Rain = 0
KST1 051255Z 32013KT 09/M04 A3006 RMK A01 T00881039  RH  040%=      5-min Rain = 0
KST1 051256Z 32013KT 09/M04 A3006 RMK A01 T00891039  RH  040%=      5-min Rain = 0
KST1 051257Z 32013KT 09/M04 A3006 RMK A01 T00881039  RH  040%=      5-min Rain = 0
KST1 051258Z 32013KT 09/M04 A3006 RMK A01 T00881039  RH  040%=      5-min Rain = 0
KST1 051259Z 32012KT 09/M04 A3006 RMK A01 T00881039  RH  040%=      5-min Rain = 0
KST1 051300Z 32012KT 09/M04 A3006 RMK A01 T00881039  RH  041%=      5-min Rain = 0
KST1 051301Z 32013KT 09/M04 A3006 RMK A01 T00871039  RH  041%=      5-min Rain = 0
KST1 051302Z 32012KT 09/M04 A3007 RMK A01 T00861040  RH  041%=      5-min Rain = 0
KST1 051303Z 32012KT 09/M04 A3007 RMK A01 T00851039  RH  041%=      5-min Rain = 0
KST1 051304Z 32011KT 09/M04 A3007 RMK A01 T00851040  RH  041%=      5-min Rain = 0
KST1 051305Z 32011KT 09/M04 A3007 RMK A01 T00851040  RH  041%=      5-min Rain = 0
KST1 051306Z 32012KT 09/M04 A3007 RMK A01 T00851040  RH  041%=      5-min Rain = 0
KST1 051307Z 32012KT 08/M04 A3007 RMK A01 T00841040  RH  041%=      5-min Rain = 0
KST1 051308Z 32012KT 08/M04 A3007 RMK A01 T00841040  RH  041%=      5-min Rain = 0
KST1 051309Z 32011KT 09/M04 A3007 RMK A01 T00851040  RH  041%=      5-min Rain = 0
KST1 051310Z 32011KT 09/M04 A3007 RMK A01 T00851041  RH  041%=      5-min Rain = 0
KST1 051311Z 32010KT 08/M04 A3007 RMK A01 T00841040  RH  041%=      5-min Rain = 0
KST1 051312Z 32011KT 08/M04 A3007 RMK A01 T00831041  RH  041%=      5-min Rain = 0
KST1 051313Z 32012KT 08/M04 A3007 RMK A01 T00831041  RH  041%=      5-min Rain = 0
KST1 051314Z 32012KT 08/M04 A3007 RMK A01 T00831041  RH  041%=      5-min Rain = 0
KST1 051315Z 32013KT 08/M04 A3007 RMK A01 T00841041  RH  041%=      5-min Rain = 0
KST1 051316Z 32013KT 09/M04 A3007 RMK A01 T00851040  RH  041%=      5-min Rain = 0
KST1 051317Z 32014KT 09/M04 A3007 RMK A01 T00861040  RH  041%=      5-min Rain = 0
KST1 051318Z 32015G20KT 09/M04 A3007 RMK A01 T00871039  RH  041%=      5-min Rain = 0
KST1 051319Z 32015KT 09/M04 A3007 RMK A01 T00891037  RH  041%=      5-min Rain = 0
KST1 051320Z 32014KT 09/M04 A3008 RMK A01 T00911037  RH  041%=      5-min Rain = 0
KST1 051321Z 32015KT 09/M04 A3008 RMK A01 T00901036  RH  041%=      5-min Rain = 0
KST1 051322Z 32014G19KT 09/M04 A3008 RMK A01 T00911035  RH  041%=      5-min Rain = 0
KST1 051323Z 33014KT 09/M04 A3008 RMK A01 T00911035  RH  041%=      5-min Rain = 0
KST1 051324Z 32014KT 09/M03 A3008 RMK A01 T00921034  RH  041%=      5-min Rain = 0
KST1 051325Z 32015KT 09/M03 A3008 RMK A01 T00921033  RH  041%=      5-min Rain = 0
KST1 051326Z 32014KT 09/M03 A3008 RMK A01 T00931033  RH  041%=      5-min Rain = 0
KST1 051327Z 32014KT 09/M03 A3008 RMK A01 T00931033  RH  041%=      5-min Rain = 0
KST1 051328Z 33014KT 09/M03 A3008 RMK A01 T00931032  RH  041%=      5-min Rain = 0
KST1 051329Z 33014KT 09/M03 A3008 RMK A01 T00931032  RH  041%=      5-min Rain = 0
KST1 051330Z 32013KT 09/M03 A3008 RMK A01 T00931032  RH  041%=      5-min Rain = 0
KST1 051331Z 32014KT 09/M03 A3008 RMK A01 T00931032  RH  042%=      5-min Rain = 0
KST1 051332Z 33015KT 09/M03 A3008 RMK A01 T00931032  RH  041%=      5-min Rain = 0
KST1 051333Z 32015KT 09/M03 A3008 RMK A01 T00931032  RH  041%=      5-min Rain = 0
KST1 051334Z 33014KT 09/M03 A3008 RMK A01 T00941032  RH  041%=      5-min Rain = 0
KST1 051335Z 32013KT 09/M03 A3008 RMK A01 T00941031  RH  041%=      5-min Rain = 0
KST1 051336Z 32013KT 09/M03 A3009 RMK A01 T00941031  RH  041%=      5-min Rain = 0
KST1 051337Z 32013KT 09/M03 A3009 RMK A01 T00941031  RH  041%=      5-min Rain = 0
KST1 051338Z 32012KT 09/M03 A3009 RMK A01 T00941031  RH  041%=      5-min Rain = 0
KST1 051339Z 32012KT 09/M03 A3009 RMK A01 T00941030  RH  041%=      5-min Rain = 0
KST1 051340Z 32012KT 09/M03 A3009 RMK A01 T00941030  RH  042%=      5-min Rain = 0
KST1 051341Z 32011KT 09/M03 A3009 RMK A01 T00941030  RH  042%=      5-min Rain = 0
KST1 051342Z 32011KT 09/M03 A3009 RMK A01 T00941031  RH  041%=      5-min Rain = 0
KST1 051343Z 32011KT 09/M03 A3009 RMK A01 T00941031  RH  041%=      5-min Rain = 0
KST1 051344Z 32012KT 09/M03 A3009 RMK A01 T00941030  RH  042%=      5-min Rain = 0
KST1 051345Z 32011KT 09/M03 A3009 RMK A01 T00941029  RH  042%=      5-min Rain = 0
KST1 051346Z 32012KT 09/M03 A3009 RMK A01 T00941030  RH  042%=      5-min Rain = 0
KST1 051347Z 32012KT 10/M03 A3009 RMK A01 T00951030  RH  041%=      5-min Rain = 0
KST1 051348Z 32012G17KT 10/M03 A3009 RMK A01 T00951030  RH  041%=      5-min Rain = 0
KST1 051349Z 32011KT 10/M03 A3009 RMK A01 T00951030  RH  041%=      5-min Rain = 0
KST1 051350Z 32011KT 10/M03 A3009 RMK A01 T00951030  RH  041%=      5-min Rain = 0
KST1 051351Z 32010KT 10/M03 A3009 RMK A01 T00951030  RH  041%=      5-min Rain = 0
KST1 051352Z 32012KT 10/M03 A301 RMK A01 T00951030  RH  041%=      5-min Rain = 0
KST1 051353Z 32012KT 10/M03 A301 RMK A01 T00961030  RH  041%=      5-min Rain = 0
KST1 051354Z 32011KT 10/M03 A301 RMK A01 T00961030  RH  041%=      5-min Rain = 0
KST1 051355Z 32010KT 10/M03 A301 RMK A01 T00961030  RH  041%=      5-min Rain = 0
KST1 051356Z 32012KT 10/M03 A301 RMK A01 T00961030  RH  041%=      5-min Rain = 0
KST1 051357Z 32011KT 10/M03 A301 RMK A01 T00971030  RH  041%=      5-min Rain = 0
KST1 051358Z 32012KT 10/M03 A301 RMK A01 T00971030  RH  041%=      5-min Rain = 0
KST1 051359Z 31010KT 10/M03 A301 RMK A01 T00981030  RH  041%=      5-min Rain = 0
KST1 051400Z 31010KT 10/M03 A301 RMK A01 T00981030  RH  041%=      5-min Rain = 0
KST1 051401Z 32009KT 10/M03 A301 RMK A01 T00981029  RH  041%=      5-min Rain = 0
KST1 051402Z 31012KT 10/M03 A301 RMK A01 T00991029  RH  041%=      5-min Rain = 0
KST1 051403Z 32010KT 10/M03 A301 RMK A01 T00991030  RH  040%=      5-min Rain = 0
KST1 051404Z 31011KT 10/M03 A301 RMK A01 T01001029  RH  040%=      5-min Rain = 0
KST1 051405Z 31012KT 10/M03 A301 RMK A01 T01001028  RH  040%=      5-min Rain = 0
KST1 051406Z 32010KT 10/M03 A301 RMK A01 T01001028  RH  040%=      5-min Rain = 0
KST1 051407Z 31011KT 10/M03 A301 RMK A01 T01001027  RH  041%=      5-min Rain = 0
KST1 051408Z 32012KT 10/M03 A301 RMK A01 T01001027  RH  041%=      5-min Rain = 0
KST1 051409Z 32011KT 10/M03 A301 RMK A01 T01001027  RH  041%=      5-min Rain = 0
KST1 051410Z 33010KT 10/M03 A3011 RMK A01 T01001027  RH  041%=      5-min Rain = 0
KST1 051411Z 32012KT 10/M03 A3011 RMK A01 T00991027  RH  041%=      5-min Rain = 0
KST1 051412Z 32013KT 10/M03 A3011 RMK A01 T01001026  RH  041%=      5-min Rain = 0
KST1 051413Z 32015KT 10/M03 A3011 RMK A01 T01001026  RH  041%=      5-min Rain = 0
KST1 051414Z 32014KT 10/M03 A3011 RMK A01 T01011025  RH  041%=      5-min Rain = 0
KST1 051415Z 33012KT 10/M02 A3011 RMK A01 T01011024  RH  041%=      5-min Rain = 0
KST1 051416Z 32012KT 10/M02 A3011 RMK A01 T01011023  RH  042%=      5-min Rain = 0
KST1 051417Z 33016KT 10/M02 A3011 RMK A01 T01011022  RH  042%=      5-min Rain = 0
KST1 051418Z 32012KT 10/M02 A3011 RMK A01 T01021021  RH  042%=      5-min Rain = 0
KST1 051419Z 33015KT 10/M02 A3011 RMK A01 T01021019  RH  043%=      5-min Rain = 0
KST1 051420Z 32015KT 10/M02 A3011 RMK A01 T01021019  RH  043%=      5-min Rain = 0
KST1 051421Z 32013KT 10/M02 A3011 RMK A01 T01021019  RH  043%=      5-min Rain = 0
KST1 051422Z 33015KT 10/M02 A3011 RMK A01 T01031018  RH  043%=      5-min Rain = 0
KST1 051423Z 32016G22KT 10/M02 A3011 RMK A01 T01031017  RH  043%=      5-min Rain = 0
KST1 051424Z 33017KT 10/M02 A3011 RMK A01 T01041015  RH  043%=      5-min Rain = 0
KST1 051425Z 33017G22KT 10/M01 A3011 RMK A01 T01041014  RH  044%=      5-min Rain = 0
KST1 051426Z 33018KT 11/M01 A3011 RMK A01 T01051013  RH  044%=      5-min Rain = 0
KST1 051427Z 33017KT 11/M01 A3011 RMK A01 T01061012  RH  044%=      5-min Rain = 0
KST1 051428Z 33015KT 11/M01 A3011 RMK A01 T01061012  RH  044%=      5-min Rain = 0
KST1 051429Z 33015KT 11/M01 A3011 RMK A01 T01071012  RH  044%=      5-min Rain = 0
KST1 051430Z 33016KT 11/M01 A3011 RMK A01 T01071010  RH  044%=      5-min Rain = 0
KST1 051431Z 33017KT 11/M01 A3011 RMK A01 T01081009  RH  044%=      5-min Rain = 0
KST1 051432Z 33015KT 11/M01 A3011 RMK A01 T01091007  RH  045%=      5-min Rain = 0
KST1 051433Z 33015KT 11/M01 A3011 RMK A01 T01091007  RH  045%=      5-min Rain = 0
KST1 051434Z 33015KT 11/M01 A3011 RMK A01 T01101006  RH  044%=      5-min Rain = 0
KST1 051435Z 33017KT 11/M01 A3011 RMK A01 T01101006  RH  044%=      5-min Rain = 0
KST1 051436Z 33015KT 11/M01 A3011 RMK A01 T01111006  RH  044%=      5-min Rain = 0
KST1 051437Z 33017KT 11/M01 A3011 RMK A01 T01111005  RH  045%=      5-min Rain = 0
KST1 051438Z 33017G22KT 11/M01 A3011 RMK A01 T01111005  RH  045%=      5-min Rain = 0
KST1 051439Z 33015KT 11/M01 A3011 RMK A01 T01101005  RH  045%=      5-min Rain = 0
KST1 051440Z 33015G20KT 11/M01 A3011 RMK A01 T01101005  RH  045%=      5-min Rain = 0
KST1 051441Z 33014KT 11/M00 A3011 RMK A01 T01101004  RH  045%=      5-min Rain = 0
KST1 051442Z 33016G24KT 11/M00 A3011 RMK A01 T01121002  RH  045%=      5-min Rain = 0
KST1 051443Z 33018KT 11/M00 A3011 RMK A01 T01141002  RH  045%=      5-min Rain = 0
KST1 051444Z 33020G25KT 12/M00 A3011 RMK A01 T01151002  RH  045%=      5-min Rain = 0
KST1 051445Z 33019G24KT 12/M00 A3011 RMK A01 T01161001  RH  044%=      5-min Rain = 0
KST1 051446Z 34020G26KT 12/M00 A3011 RMK A01 T01171002  RH  044%=      5-min Rain = 0
KST1 051447Z 33020G25KT 12/M00 A3011 RMK A01 T01171001  RH  044%=      5-min Rain = 0
KST1 051448Z 33019KT 12/M00 A3011 RMK A01 T01181001  RH  044%=      5-min Rain = 0
KST1 051449Z 33019G26KT 12/M00 A3011 RMK A01 T01181001  RH  044%=      5-min Rain = 0
KST1 051450Z 33022G27KT 12/M00 A3011 RMK A01 T01191002  RH  043%=      5-min Rain = 0
KST1 051451Z 33021G26KT 12/M00 A3011 RMK A01 T01191002  RH  043%=      5-min Rain = 0
KST1 051452Z 33022KT 12/M00 A3011 RMK A01 T01191002  RH  043%=      5-min Rain = 0
KST1 051453Z 33022G28KT 12/M00 A3011 RMK A01 T01201002  RH  043%=      5-min Rain = 0
KST1 051454Z 33020G27KT 12/M00 A3011 RMK A01 T01201003  RH  043%=      5-min Rain = 0
KST1 051455Z 33018G25KT 12/M00 A3011 RMK A01 T01211002  RH  043%=      5-min Rain = 0
KST1 051456Z 33018KT 12/M00 A3011 RMK A01 T01221001  RH  043%=      5-min Rain = 0
KST1 051457Z 33020KT 12/M00 A3011 RMK A01 T01231003  RH  042%=      5-min Rain = 0
KST1 051458Z 32019G24KT 12/M00 A3011 RMK A01 T01221002  RH  042%=      5-min Rain = 0
KST1 051459Z 32021G28KT 12/M00 A3011 RMK A01 T01231002  RH  042%=      5-min Rain = 0
KST1 051500Z 32019G26KT 12/M00 A3011 RMK A01 T01231003  RH  042%=      5-min Rain = 0
KST1 051501Z 33019G28KT 12/M00 A3011 RMK A01 T01231002  RH  042%=      5-min Rain = 0
KST1 051502Z 32024G29KT 12/M00 A3011 RMK A01 T01241002  RH  042%=      5-min Rain = 0
KST1 051503Z 33025G30KT 12/M00 A3011 RMK A01 T01241002  RH  042%=      5-min Rain = 0
KST1 051504Z 33024G29KT 12/M00 A3011 RMK A01 T01241002  RH  042%=      5-min Rain = 0
KST1 051505Z 32021G27KT 12/M00 A3011 RMK A01 T01241002  RH  042%=      5-min Rain = 0
KST1 051506Z 33021KT 13/M00 A3011 RMK A01 T01251002  RH  042%=      5-min Rain = 0
KST1 051507Z 33023G29KT 13/M00 A3011 RMK A01 T01251001  RH  042%=      5-min Rain = 0
KST1 051508Z 32023KT 13/M00 A3011 RMK A01 T01251002  RH  041%=      5-min Rain = 0
KST1 051509Z 32023G29KT 13/M00 A3011 RMK A01 T01251001  RH  042%=      5-min Rain = 0
KST1 051510Z 32023KT 13/M00 A3011 RMK A01 T01251001  RH  042%=      5-min Rain = 0
KST1 051511Z 33021G28KT 13/M00 A3011 RMK A01 T01261001  RH  041%=      5-min Rain = 0
KST1 051512Z 33020G25KT 13/00 A3011 RMK A01 T01270001  RH  042%=      5-min Rain = 0
KST1 051513Z 33020G25KT 13/00 A3011 RMK A01 T01280001  RH  042%=      5-min Rain = 0
KST1 051514Z 33022G28KT 13/00 A3011 RMK A01 T01280000  RH  041%=      5-min Rain = 0
KST1 051515Z 34023G29KT 13/00 A3011 RMK A01 T01280002  RH  042%=      5-min Rain = 0
KST1 051516Z 33023G29KT 13/00 A3011 RMK A01 T01280003  RH  042%=      5-min Rain = 0
KST1 051517Z 33024KT 13/00 A3011 RMK A01 T01280003  RH  042%=      5-min Rain = 0
KST1 051518Z 33020G26KT 13/00 A3011 RMK A01 T01280003  RH  042%=      5-min Rain = 0
KST1 051519Z 33022KT 13/00 A3011 RMK A01 T01300003  RH  042%=      5-min Rain = 0
KST1 051520Z 33020G26KT 13/00 A3011 RMK A01 T01300003  RH  042%=      5-min Rain = 0
KST1 051521Z 33025G31KT 13/00 A3011 RMK A01 T01300004  RH  042%=      5-min Rain = 0
KST1 051522Z 33025G30KT 13/01 A3011 RMK A01 T01290006  RH  043%=      5-min Rain = 0
KST1 051523Z 33024G30KT 13/01 A3011 RMK A01 T01290006  RH  043%=      5-min Rain = 0
KST1 051524Z 33024G30KT 13/01 A3011 RMK A01 T01300007  RH  043%=      5-min Rain = 0
KST1 051525Z 33024G30KT 13/01 A3011 RMK A01 T01300008  RH  043%=      5-min Rain = 0
KST1 051526Z 33026KT 13/01 A3011 RMK A01 T01310009  RH  043%=      5-min Rain = 0
KST1 051527Z 33023G30KT 13/01 A3011 RMK A01 T01310010  RH  044%=      5-min Rain = 0
KST1 051528Z 33022G29KT 13/01 A3011 RMK A01 T01320010  RH  043%=      5-min Rain = 0
KST1 051529Z 33020G26KT 13/01 A3011 RMK A01 T01330011  RH  043%=      5-min Rain = 0
KST1 051530Z 33025G30KT 14/01 A3011 RMK A01 T01350013  RH  043%=      5-min Rain = 0
KST1 051531Z 33023KT 14/01 A3011 RMK A01 T01350011  RH  043%=      5-min Rain = 0
KST1 051532Z 34023G28KT 13/01 A3011 RMK A01 T01340012  RH  043%=      5-min Rain = 0
KST1 051533Z 33023G28KT 13/01 A3011 RMK A01 T01340011  RH  043%=      5-min Rain = 0
KST1 051534Z 33024KT 13/01 A3011 RMK A01 T01340012  RH  043%=      5-min Rain = 0
KST1 051535Z 33024G29KT 13/01 A3011 RMK A01 T01340013  RH  044%=      5-min Rain = 0
KST1 051536Z 34026G31KT 14/01 A3011 RMK A01 T01350014  RH  044%=      5-min Rain = 0
KST1 051537Z 34027KT 14/02 A3011 RMK A01 T01360016  RH  044%=      5-min Rain = 0
KST1 051538Z 34025G30KT 14/02 A3011 RMK A01 T01360016  RH  044%=      5-min Rain = 0
KST1 051539Z 34026G31KT 14/02 A3011 RMK A01 T01360016  RH  044%=      5-min Rain = 0
KST1 051540Z 33025KT 14/01 A3011 RMK A01 T01360014  RH  043%=      5-min Rain = 0
KST1 051541Z 33023G30KT 14/01 A3011 RMK A01 T01360013  RH  043%=      5-min Rain = 0
KST1 051542Z 33023G29KT 14/01 A3011 RMK A01 T01360014  RH  044%=      5-min Rain = 0
KST1 051543Z 33023G30KT 14/02 A3011 RMK A01 T01380016  RH  044%=      5-min Rain = 0
KST1 051544Z 33023G29KT 14/02 A3011 RMK A01 T01400016  RH  043%=      5-min Rain = 0
KST1 051545Z 33025G30KT 14/02 A3011 RMK A01 T01400015  RH  043%=      5-min Rain = 0
KST1 051546Z 33024G31KT 14/02 A3012 RMK A01 T01380015  RH  043%=      5-min Rain = 0
KST1 051547Z 34025G30KT 14/02 A3012 RMK A01 T01390016  RH  043%=      5-min Rain = 0
KST1 051548Z 34026KT 14/02 A3012 RMK A01 T01390016  RH  043%=      5-min Rain = 0
KST1 051549Z 34025G30KT 14/02 A3012 RMK A01 T01400016  RH  043%=      5-min Rain = 0
KST1 051550Z 33028G34KT 14/02 A3012 RMK A01 T01400015  RH  043%=      5-min Rain = 0
KST1 051551Z 33026KT 14/02 A3012 RMK A01 T01390016  RH  043%=      5-min Rain = 0
KST1 051552Z 34026KT 14/02 A3012 RMK A01 T01400016  RH  043%=      5-min Rain = 0
KST1 051553Z 33024G29KT 14/02 A3012 RMK A01 T01420017  RH  043%=      5-min Rain = 0
KST1 051554Z 34023G30KT 14/02 A3012 RMK A01 T01440018  RH  043%=      5-min Rain = 0
KST1 051555Z 33023G30KT 15/02 A3012 RMK A01 T01460018  RH  042%=      5-min Rain = 0
KST1 051556Z 33022G27KT 15/02 A3012 RMK A01 T01450017  RH  042%=      5-min Rain = 0
KST1 051557Z 34026G31KT 15/02 A3011 RMK A01 T01450018  RH  042%=      5-min Rain = 0
KST1 051558Z 34025G31KT 15/02 A3012 RMK A01 T01450018  RH  042%=      5-min Rain = 0
KST1 051559Z 34027G32KT 15/02 A3012 RMK A01 T01450018  RH  042%=      5-min Rain = 0
KST1 051600Z 34026G32KT 15/02 A3012 RMK A01 T01450019  RH  042%=      5-min Rain = 0
KST1 051601Z 33027G33KT 15/02 A3012 RMK A01 T01450018  RH  042%=      5-min Rain = 0
KST1 051602Z 34025G30KT 14/02 A3012 RMK A01 T01440018  RH  042%=      5-min Rain = 0
KST1 051603Z 33024G30KT 14/02 A3012 RMK A01 T01440018  RH  042%=      5-min Rain = 0
KST1 051604Z 33027KT 15/02 A3012 RMK A01 T01450018  RH  042%=      5-min Rain = 0
KST1 051605Z 33023G30KT 15/02 A3011 RMK A01 T01450019  RH  042%=      5-min Rain = 0
KST1 051606Z 33025G30KT 15/02 A3011 RMK A01 T01470020  RH  042%=      5-min Rain = 0
KST1 051607Z 33025G32KT 15/02 A3011 RMK A01 T01480019  RH  042%=      5-min Rain = 0
KST1 051608Z 33027G32KT 15/02 A3011 RMK A01 T01460018  RH  042%=      5-min Rain = 0
KST1 051609Z 34027G32KT 15/02 A3011 RMK A01 T01450019  RH  042%=      5-min Rain = 0
KST1 051610Z 33027G33KT 15/02 A3011 RMK A01 T01460019  RH  042%=      5-min Rain = 0
KST1 051611Z 33025G31KT 15/02 A3011 RMK A01 T01460019  RH  042%=      5-min Rain = 0
KST1 051612Z 33026G33KT 15/02 A3011 RMK A01 T01460019  RH  042%=      5-min Rain = 0
KST1 051613Z 32027G34KT 15/02 A3011 RMK A01 T01470020  RH  042%=      5-min Rain = 0
KST1 051614Z 32031G36KT 15/02 A3011 RMK A01 T01480020  RH  042%=      5-min Rain = 0
KST1 051615Z 33027G33KT 15/02 A3011 RMK A01 T01470020  RH  042%=      5-min Rain = 0
KST1 051616Z 33027G32KT 15/02 A3012 RMK A01 T01490021  RH  042%=      5-min Rain = 0
KST1 051617Z 33030G36KT 15/02 A3012 RMK A01 T01490021  RH  042%=      5-min Rain = 0
KST1 051618Z 33030G36KT 15/02 A3012 RMK A01 T01480021  RH  042%=      5-min Rain = 0
KST1 051619Z 33030G36KT 15/02 A3012 RMK A01 T01470021  RH  042%=      5-min Rain = 0
KST1 051620Z 33028G34KT 15/02 A3012 RMK A01 T01470021  RH  043%=      5-min Rain = 0
KST1 051621Z 33029G35KT 15/02 A3012 RMK A01 T01480023  RH  043%=      5-min Rain = 0
KST1 051622Z 33028G34KT 15/02 A3012 RMK A01 T01480023  RH  043%=      5-min Rain = 0
KST1 051623Z 33027KT 15/02 A3012 RMK A01 T01480023  RH  043%=      5-min Rain = 0
KST1 051624Z 33026KT 15/02 A3012 RMK A01 T01500024  RH  043%=      5-min Rain = 0
KST1 051625Z 33028G35KT 15/02 A3012 RMK A01 T01490024  RH  043%=      5-min Rain = 0
KST1 051626Z 33026G32KT 15/03 A3012 RMK A01 T01500026  RH  043%=      5-min Rain = 0
KST1 051627Z 34027G32KT 15/03 A3012 RMK A01 T01500027  RH  043%=      5-min Rain = 0
KST1 051628Z 33028G33KT 15/03 A3012 RMK A01 T01510028  RH  044%=      5-min Rain = 0
KST1 051629Z 33028G34KT 15/03 A3012 RMK A01 T01520028  RH  043%=      5-min Rain = 0
KST1 051630Z 33027G32KT 15/03 A3012 RMK A01 T01510028  RH  044%=      5-min Rain = 0
KST1 051631Z 33028G33KT 15/03 A3012 RMK A01 T01520029  RH  044%=      5-min Rain = 0
KST1 051632Z 33030G35KT 15/03 A3012 RMK A01 T01530027  RH  043%=      5-min Rain = 0
KST1 051633Z 33027G33KT 15/03 A3012 RMK A01 T01500025  RH  043%=      5-min Rain = 0
KST1 051634Z 33028G34KT 15/03 A3012 RMK A01 T01500025  RH  043%=      5-min Rain = 0
KST1 051635Z 33029G34KT 15/03 A3012 RMK A01 T01510025  RH  043%=      5-min Rain = 0
KST1 051636Z 33027G32KT 15/03 A3012 RMK A01 T01520026  RH  043%=      5-min Rain = 0
KST1 051637Z 34029G34KT 15/03 A3012 RMK A01 T01540026  RH  042%=      5-min Rain = 0
KST1 051638Z 33026KT 15/03 A3012 RMK A01 T01530026  RH  043%=      5-min Rain = 0
KST1 051639Z 33025G33KT 15/03 A3012 RMK A01 T01530027  RH  043%=      5-min Rain = 0
KST1 051640Z 34029G34KT 16/03 A3012 RMK A01 T01550030  RH  043%=      5-min Rain = 0
KST1 051641Z 33030G36KT 16/03 A3012 RMK A01 T01570029  RH  042%=      5-min Rain = 0
KST1 051642Z 33031G36KT 16/03 A3012 RMK A01 T01550030  RH  043%=      5-min Rain = 0
KST1 051643Z 33029G35KT 15/03 A3012 RMK A01 T01540030  RH  043%=      5-min Rain = 0
KST1 051644Z 34027G35KT 15/03 A3012 RMK A01 T01530030  RH  043%=      5-min Rain = 0
KST1 051645Z 33030G37KT 15/03 A3012 RMK A01 T01540031  RH  044%=      5-min Rain = 0
KST1 051646Z 33031G38KT 16/03 A3012 RMK A01 T01550030  RH  043%=      5-min Rain = 0
KST1 051647Z 33030G36KT 15/03 A3012 RMK A01 T01540030  RH  043%=      5-min Rain = 0
KST1 051648Z 33030G36KT 16/03 A3012 RMK A01 T01550029  RH  043%=      5-min Rain = 0
KST1 051649Z 33033G39KT 16/03 A3012 RMK A01 T01560028  RH  042%=      5-min Rain = 0
KST1 051650Z 33031G36KT 16/03 A3012 RMK A01 T01560028  RH  042%=      5-min Rain = 0
KST1 051651Z 33028KT 16/03 A3013 RMK A01 T01550028  RH  042%=      5-min Rain = 0
KST1 051652Z 34025G30KT 16/03 A3013 RMK A01 T01550028  RH  042%=      5-min Rain = 0
KST1 051653Z 33024G33KT 16/03 A3012 RMK A01 T01550029  RH  043%=      5-min Rain = 0
KST1 051654Z 34030G37KT 16/03 A3012 RMK A01 T01570028  RH  042%=      5-min Rain = 0
KST1 051655Z 35031G37KT 16/03 A3012 RMK A01 T01580028  RH  042%=      5-min Rain = 0
KST1 051656Z 35029G35KT 16/03 A3012 RMK A01 T01570028  RH  042%=      5-min Rain = 0
KST1 051657Z 34026G31KT 16/03 A3013 RMK A01 T01590028  RH  041%=      5-min Rain = 0
KST1 051658Z 34027G36KT 16/03 A3013 RMK A01 T01610028  RH  041%=      5-min Rain = 0
KST1 051659Z 34029KT 16/03 A3013 RMK A01 T01600025  RH  040%=      5-min Rain = 0
KST1 051700Z 34030G36KT 16/03 A3013 RMK A01 T01580026  RH  041%=      5-min Rain = 0
KST1 051701Z 33027KT 16/03 A3013 RMK A01 T01570025  RH  041%=      5-min Rain = 0
KST1 051702Z 33027G35KT 16/03 A3013 RMK A01 T01560025  RH  041%=      5-min Rain = 0
KST1 051703Z 33028G35KT 16/02 A3013 RMK A01 T01560024  RH  041%=      5-min Rain = 0
KST1 051704Z 33026G31KT 16/03 A3013 RMK A01 T01560025  RH  041%=      5-min Rain = 0
KST1 051705Z 33027G38KT 16/03 A3013 RMK A01 T01600027  RH  041%=      5-min Rain = 0
KST1 051706Z 33029G35KT 16/03 A3013 RMK A01 T01630025  RH  040%=      5-min Rain = 0
KST1 051707Z 32028G34KT 16/03 A3013 RMK A01 T01590025  RH  040%=      5-min Rain = 0
KST1 051708Z 34025G33KT 16/03 A3013 RMK A01 T01600027  RH  041%=      5-min Rain = 0
KST1 051709Z 34026G31KT 16/03 A3013 RMK A01 T01630027  RH  040%=      5-min Rain = 0
KST1 051710Z 34027G35KT 16/03 A3013 RMK A01 T01610026  RH  040%=      5-min Rain = 0
KST1 051711Z 34025G32KT 16/03 A3013 RMK A01 T01600027  RH  041%=      5-min Rain = 0
KST1 051712Z 34026G32KT 16/03 A3013 RMK A01 T01610026  RH  040%=      5-min Rain = 0
KST1 051713Z 33024G32KT 16/03 A3013 RMK A01 T01630028  RH  040%=      5-min Rain = 0
KST1 051714Z 34030G35KT 17/03 A3013 RMK A01 T01660029  RH  040%=      5-min Rain = 0
KST1 051715Z 34031G36KT 17/03 A3013 RMK A01 T01650028  RH  040%=      5-min Rain = 0
KST1 051716Z 33027G35KT 16/03 A3013 RMK A01 T01620028  RH  041%=      5-min Rain = 0
KST1 051717Z 34027G33KT 16/03 A3013 RMK A01 T01610029  RH  041%=      5-min Rain = 0
KST1 051718Z 33027G35KT 16/03 A3013 RMK A01 T01610029  RH  041%=      5-min Rain = 0
KST1 051719Z 33030KT 16/03 A3013 RMK A01 T01600029  RH  042%=      5-min Rain = 0
KST1 051720Z 33029KT 16/03 A3013 RMK A01 T01590029  RH  042%=      5-min Rain = 0
KST1 051721Z 33026G32KT 16/03 A3013 RMK A01 T01590030  RH  042%=      5-min Rain = 0
KST1 051722Z 33027G33KT 16/03 A3013 RMK A01 T01620031  RH  041%=      5-min Rain = 0
KST1 051723Z 33030G35KT 16/03 A3013 RMK A01 T01610031  RH  042%=      5-min Rain = 0
KST1 051724Z 33027KT 16/03 A3013 RMK A01 T01600031  RH  042%=      5-min Rain = 0
KST1 051725Z 33027G35KT 16/03 A3014 RMK A01 T01620033  RH  042%=      5-min Rain = 0
KST1 051726Z 33027G33KT 16/03 A3013 RMK A01 T01630033  RH  042%=      5-min Rain = 0
KST1 051727Z 34025G30KT 16/03 A3013 RMK A01 T01630034  RH  042%=      5-min Rain = 0
KST1 051728Z 34029G34KT 17/04 A3013 RMK A01 T01650036  RH  042%=      5-min Rain = 0
KST1 051729Z 34027G34KT 17/04 A3014 RMK A01 T01660035  RH  042%=      5-min Rain = 0
KST1 051730Z 34026G31KT 16/04 A3013 RMK A01 T01640035  RH  042%=      5-min Rain = 0
KST1 051731Z 34029G34KT 16/04 A3013 RMK A01 T01630036  RH  042%=      5-min Rain = 0
KST1 051732Z 34027G36KT 16/04 A3013 RMK A01 T01640037  RH  043%=      5-min Rain = 0
KST1 051733Z 34028G35KT 16/04 A3013 RMK A01 T01640036  RH  042%=      5-min Rain = 0
KST1 051734Z 35025G31KT 16/04 A3013 RMK A01 T01630037  RH  043%=      5-min Rain = 0
KST1 051735Z 34027G35KT 16/04 A3013 RMK A01 T01640037  RH  043%=      5-min Rain = 0
KST1 051736Z 35027G34KT 17/04 A3013 RMK A01 T01660039  RH  043%=      5-min Rain = 0
KST1 051737Z 35029G35KT 17/04 A3014 RMK A01 T01670039  RH  043%=      5-min Rain = 0
KST1 051738Z 35028KT 17/04 A3013 RMK A01 T01660039  RH  043%=      5-min Rain = 0
KST1 051739Z 34030G37KT 17/04 A3014 RMK A01 T01650040  RH  043%=      5-min Rain = 0
KST1 051740Z 33028G34KT 17/04 A3014 RMK A01 T01650040  RH  043%=      5-min Rain = 0
KST1 051741Z 33025G32KT 17/04 A3014 RMK A01 T01650039  RH  043%=      5-min Rain = 0
KST1 051742Z 33026G36KT 16/04 A3014 RMK A01 T01620039  RH  044%=      5-min Rain = 0
KST1 051743Z 33023G33KT 16/04 A3014 RMK A01 T01620039  RH  044%=      5-min Rain = 0
KST1 051744Z 33026G31KT 16/04 A3014 RMK A01 T01630038  RH  044%=      5-min Rain = 0
KST1 051745Z 34026G32KT 16/04 A3014 RMK A01 T01630039  RH  044%=      5-min Rain = 0
KST1 051746Z 33026KT 17/04 A3014 RMK A01 T01650041  RH  044%=      5-min Rain = 0
KST1 051747Z 34023G34KT 16/04 A3014 RMK A01 T01630041  RH  044%=      5-min Rain = 0
KST1 051748Z 35028G34KT 17/04 A3014 RMK A01 T01650040  RH  043%=      5-min Rain = 0
KST1 051749Z 34027G33KT 17/04 A3014 RMK A01 T01650040  RH  043%=      5-min Rain = 0
KST1 051750Z 35029KT 17/04 A3014 RMK A01 T01650040  RH  043%=      5-min Rain = 0
KST1 051751Z 34027G33KT 16/04 A3014 RMK A01 T01640041  RH  044%=      5-min Rain = 0
KST1 051752Z 35024G30KT 17/04 A3014 RMK A01 T01660044  RH  044%=      5-min Rain = 0
KST1 051753Z 35027G35KT 17/05 A3013 RMK A01 T01680045  RH  044%=      5-min Rain = 0
KST1 051754Z 34029G36KT 17/04 A3014 RMK A01 T01670043  RH  044%=      5-min Rain = 0
KST1 051755Z 35026G31KT 17/04 A3014 RMK A01 T01660041  RH  043%=      5-min Rain = 0
KST1 051756Z 34025G30KT 17/04 A3014 RMK A01 T01650040  RH  044%=      5-min Rain = 0
KST1 051757Z 35027G35KT 16/04 A3013 RMK A01 T01630042  RH  044%=      5-min Rain = 0
KST1 051758Z 33028G35KT 17/04 A3014 RMK A01 T01650042  RH  044%=      5-min Rain = 0
KST1 051759Z 34026G32KT 17/04 A3014 RMK A01 T01670042  RH  043%=      5-min Rain = 0
KST1 051800Z 34025G31KT 17/04 A3014 RMK A01 T01670042  RH  043%=      5-min Rain = 0
KST1 051801Z 35027G32KT 17/04 A3014 RMK A01 T01680041  RH  043%=      5-min Rain = 0
KST1 051802Z 35028KT 17/04 A3014 RMK A01 T01670043  RH  044%=      5-min Rain = 0
KST1 051803Z 35027KT 16/04 A3014 RMK A01 T01630044  RH  045%=      5-min Rain = 0
KST1 051804Z 35029G37KT 16/05 A3014 RMK A01 T01620045  RH  046%=      5-min Rain = 0
KST1 051805Z 35026G32KT 16/05 A3014 RMK A01 T01630045  RH  045%=      5-min Rain = 0
KST1 051806Z 35027KT 17/05 A3014 RMK A01 T01660045  RH  045%=      5-min Rain = 0
KST1 051807Z 35026KT 17/04 A3014 RMK A01 T01660044  RH  044%=      5-min Rain = 0
KST1 051808Z 35028G36KT 16/04 A3014 RMK A01 T01630043  RH  045%=      5-min Rain = 0
KST1 051809Z 34026G32KT 16/04 A3014 RMK A01 T01630043  RH  045%=      5-min Rain = 0
KST1 051810Z 33026G33KT 17/04 A3014 RMK A01 T01650043  RH  044%=      5-min Rain = 0
KST1 051811Z 34024G31KT 17/04 A3014 RMK A01 T01650044  RH  044%=      5-min Rain = 0
KST1 051812Z 34026KT 17/05 A3014 RMK A01 T01680045  RH  044%=      5-min Rain = 0
KST1 051813Z 34028G33KT 17/04 A3014 RMK A01 T01670043  RH  044%=      5-min Rain = 0
KST1 051814Z 35028G35KT 17/05 A3014 RMK A01 T01650045  RH  045%=      5-min Rain = 0
KST1 051815Z 34030G36KT 16/05 A3014 RMK A01 T01640045  RH  045%=      5-min Rain = 0
KST1 051816Z 34029G36KT 16/05 A3014 RMK A01 T01620045  RH  046%=      5-min Rain = 0
KST1 051817Z 34024G29KT 16/04 A3014 RMK A01 T01600044  RH  046%=      5-min Rain = 0
KST1 051818Z 34026G35KT 16/04 A3014 RMK A01 T01610044  RH  046%=      5-min Rain = 0
KST1 051819Z 34029KT 16/04 A3014 RMK A01 T01630043  RH  045%=      5-min Rain = 0
KST1 051820Z 34027G33KT 16/04 A3014 RMK A01 T01620042  RH  045%=      5-min Rain = 0
KST1 051821Z 34027G34KT 16/04 A3014 RMK A01 T01620042  RH  045%=      5-min Rain = 0
KST1 051822Z 34022G29KT 16/04 A3014 RMK A01 T01620043  RH  045%=      5-min Rain = 0
KST1 051823Z 34026G33KT 16/04 A3014 RMK A01 T01640043  RH  045%=      5-min Rain = 0
KST1 051824Z 34022G28KT 16/04 A3014 RMK A01 T01640042  RH  044%=      5-min Rain = 0
KST1 051825Z 35025G30KT 17/04 A3014 RMK A01 T01660044  RH  044%=      5-min Rain = 0
KST1 051826Z 35026G31KT 17/04 A3014 RMK A01 T01650043  RH  044%=      5-min Rain = 0
KST1 051827Z 35028KT 16/04 A3014 RMK A01 T01640044  RH  045%=      5-min Rain = 0
KST1 051828Z 35025G31KT 16/05 A3014 RMK A01 T01640045  RH  045%=      5-min Rain = 0
KST1 051829Z 35025G34KT 17/04 A3014 RMK A01 T01660043  RH  044%=      5-min Rain = 0
KST1 051830Z 34027KT 16/04 A3014 RMK A01 T01620042  RH  045%=      5-min Rain = 0
KST1 051831Z 34027G33KT 16/04 A3014 RMK A01 T01610042  RH  045%=      5-min Rain = 0
KST1 051832Z 34026G32KT 16/04 A3014 RMK A01 T01610042  RH  045%=      5-min Rain = 0
KST1 051833Z 34026KT 16/04 A3014 RMK A01 T01630042  RH  045%=      5-min Rain = 0
KST1 051834Z 35025KT 16/04 A3014 RMK A01 T01620042  RH  045%=      5-min Rain = 0
KST1 051835Z 34027G32KT 16/04 A3014 RMK A01 T01610043  RH  045%=      5-min Rain = 0
KST1 051836Z 34023KT 16/04 A3014 RMK A01 T01600041  RH  045%=      5-min Rain = 0
KST1 051837Z 34023G29KT 16/04 A3014 RMK A01 T01610044  RH  046%=      5-min Rain = 0
KST1 051838Z 36025G30KT 17/05 A3014 RMK A01 T01650045  RH  045%=      5-min Rain = 0
KST1 051839Z 35021G27KT 17/04 A3014 RMK A01 T01650043  RH  044%=      5-min Rain = 0
KST1 051840Z 35024G30KT 17/05 A3014 RMK A01 T01660045  RH  044%=      5-min Rain = 0
KST1 051841Z 35024G30KT 17/04 A3014 RMK A01 T01660044  RH  044%=      5-min Rain = 0
KST1 051842Z 34024G30KT 17/05 A3014 RMK A01 T01660046  RH  045%=      5-min Rain = 0
KST1 051843Z 34023G28KT 17/05 A3015 RMK A01 T01680045  RH  044%=      5-min Rain = 0
KST1 051844Z 34029G36KT 17/04 A3015 RMK A01 T01660044  RH  044%=      5-min Rain = 0
KST1 051845Z 34025G31KT 17/04 A3014 RMK A01 T01650044  RH  045%=      5-min Rain = 0
KST1 051846Z 35027KT 16/04 A3014 RMK A01 T01630043  RH  045%=      5-min Rain = 0
KST1 051847Z 35027G32KT 16/05 A3015 RMK A01 T01640045  RH  045%=      5-min Rain = 0
KST1 051848Z 34025G30KT 17/04 A3015 RMK A01 T01650043  RH  044%=      5-min Rain = 0
KST1 051849Z 35023KT 16/04 A3015 RMK A01 T01620043  RH  045%=      5-min Rain = 0
KST1 051850Z 35024G29KT 16/04 A3015 RMK A01 T01620043  RH  045%=      5-min Rain = 0
KST1 051851Z 34024G30KT 16/04 A3015 RMK A01 T01620044  RH  045%=      5-min Rain = 0
KST1 051852Z 34026G31KT 17/05 A3015 RMK A01 T01660045  RH  045%=      5-min Rain = 0
KST1 051853Z 34024G30KT 17/04 A3015 RMK A01 T01660044  RH  044%=      5-min Rain = 0
KST1 051854Z 34023G30KT 17/04 A3015 RMK A01 T01650044  RH  045%=      5-min Rain = 0
KST1 051855Z 34023G29KT 17/04 A3015 RMK A01 T01650043  RH  044%=      5-min Rain = 0
KST1 051856Z 33023G30KT 16/04 A3015 RMK A01 T01640043  RH  045%=      5-min Rain = 0
KST1 051857Z 35025G30KT 16/04 A3015 RMK A01 T01620043  RH  045%=      5-min Rain = 0
KST1 051858Z 35022G30KT 16/05 A3015 RMK A01 T01630045  RH  045%=      5-min Rain = 0
KST1 051859Z 33023G30KT 17/05 A3015 RMK A01 T01650045  RH  045%=      5-min Rain = 0
KST1 051900Z 34025G31KT 17/04 A3015 RMK A01 T01650044  RH  045%=      5-min Rain = 0
KST1 051901Z 34022G27KT 17/04 A3015 RMK A01 T01650044  RH  045%=      5-min Rain = 0
KST1 051902Z 34022G27KT 16/05 A3015 RMK A01 T01630045  RH  045%=      5-min Rain = 0
KST1 051903Z 34020KT 16/05 A3015 RMK A01 T01640045  RH  045%=      5-min Rain = 0
KST1 051904Z 35020G28KT 16/05 A3014 RMK A01 T01640046  RH  045%=      5-min Rain = 0
KST1 051905Z 35022G28KT 16/05 A3014 RMK A01 T01630045  RH  045%=      5-min Rain = 0
KST1 051906Z 34021G26KT 16/04 A3015 RMK A01 T01630044  RH  045%=      5-min Rain = 0
KST1 051907Z 35020KT 17/05 A3014 RMK A01 T01660046  RH  045%=      5-min Rain = 0
KST1 051908Z 35018G23KT 17/05 A3014 RMK A01 T01650046  RH  045%=      5-min Rain = 0
KST1 051909Z 35020G25KT 16/05 A3014 RMK A01 T01630046  RH  046%=      5-min Rain = 0
KST1 051910Z 36022G28KT 16/05 A3014 RMK A01 T01630046  RH  046%=      5-min Rain = 0
KST1 051911Z 36021G26KT 17/05 A3014 RMK A01 T01660047  RH  045%=      5-min Rain = 0
KST1 051912Z 35022KT 17/05 A3014 RMK A01 T01670046  RH  045%=      5-min Rain = 0
KST1 051913Z 34018G24KT 17/05 A3014 RMK A01 T01660046  RH  045%=      5-min Rain = 0
KST1 051914Z 35017G24KT 16/05 A3014 RMK A01 T01640046  RH  045%=      5-min Rain = 0
KST1 051915Z 34021G26KT 17/05 A3014 RMK A01 T01670046  RH  045%=      5-min Rain = 0
KST1 051916Z 35024KT 17/05 A3014 RMK A01 T01680045  RH  044%=      5-min Rain = 0
KST1 051917Z 35022G27KT 17/05 A3014 RMK A01 T01680045  RH  044%=      5-min Rain = 0
KST1 051918Z 35023G30KT 17/05 A3014 RMK A01 T01700048  RH  044%=      5-min Rain = 0
KST1 051919Z 35022G27KT 17/05 A3014 RMK A01 T01730045  RH  043%=      5-min Rain = 0
KST1 051920Z 36023G28KT 17/04 A3014 RMK A01 T01700044  RH  043%=      5-min Rain = 0
KST1 051921Z 00019KT 17/05 A3014 RMK A01 T01690045  RH  044%=      5-min Rain = 0
KST1 051922Z 35018G24KT 17/05 A3014 RMK A01 T01710046  RH  043%=      5-min Rain = 0
KST1 051923Z 35021G28KT 17/05 A3014 RMK A01 T01730046  RH  043%=      5-min Rain = 0
KST1 051924Z 35021KT 17/05 A3014 RMK A01 T01740045  RH  043%=      5-min Rain = 0
KST1 051925Z 35020KT 17/04 A3014 RMK A01 T01720044  RH  043%=      5-min Rain = 0
KST1 051926Z 00022G30KT 17/05 A3014 RMK A01 T01730045  RH  043%=      5-min Rain = 0
KST1 051927Z 35025G30KT 17/05 A3014 RMK A01 T01730045  RH  043%=      5-min Rain = 0
KST1 051928Z 00019G24KT 17/05 A3014 RMK A01 T01720045  RH  043%=      5-min Rain = 0
KST1 051929Z 35023G29KT 17/05 A3014 RMK A01 T01720045  RH  043%=      5-min Rain = 0
KST1 051930Z 35022G27KT 17/04 A3013 RMK A01 T01720043  RH  042%=      5-min Rain = 0
KST1 051931Z 35024G29KT 17/04 A3013 RMK A01 T01730040  RH  041%=      5-min Rain = 0
KST1 051932Z 35018G23KT 17/04 A3013 RMK A01 T01730039  RH  041%=      5-min Rain = 0
KST1 051933Z 36019G24KT 17/04 A3013 RMK A01 T01730040  RH  041%=      5-min Rain = 0
KST1 051934Z 00024G30KT 18/04 A3013 RMK A01 T01760041  RH  041%=      5-min Rain = 0
KST1 051935Z 01020G25KT 18/04 A3013 RMK A01 T01780038  RH  039%=      5-min Rain = 0
KST1 051936Z 01019KT 18/04 A3013 RMK A01 T01770037  RH  039%=      5-min Rain = 0
KST1 051937Z 36019G27KT 17/04 A3013 RMK A01 T01740038  RH  040%=      5-min Rain = 0
KST1 051938Z 00021G27KT 18/04 A3013 RMK A01 T01770040  RH  040%=      5-min Rain = 0
KST1 051939Z 00024G31KT 18/04 A3013 RMK A01 T01790038  RH  039%=      5-min Rain = 0
KST1 051940Z 01025G30KT 18/04 A3013 RMK A01 T01790036  RH  039%=      5-min Rain = 0
KST1 051941Z 00022G28KT 17/03 A3013 RMK A01 T01740034  RH  039%=      5-min Rain = 0
KST1 051942Z 00017G22KT 17/03 A3013 RMK A01 T01710034  RH  040%=      5-min Rain = 0
KST1 051943Z 00019G25KT 17/04 A3013 RMK A01 T01700036  RH  041%=      5-min Rain = 0
KST1 051944Z 35023G29KT 17/03 A3013 RMK A01 T01720034  RH  040%=      5-min Rain = 0
KST1 051945Z 35021G29KT 17/03 A3013 RMK A01 T01740033  RH  039%=      5-min Rain = 0
KST1 051946Z 00021G26KT 18/04 A3013 RMK A01 T01780035  RH  039%=      5-min Rain = 0
KST1 051947Z 35023G29KT 18/03 A3013 RMK A01 T01800033  RH  038%=      5-min Rain = 0
KST1 051948Z 36021G27KT 18/03 A3013 RMK A01 T01800033  RH  037%=      5-min Rain = 0
KST1 051949Z 35017G23KT 18/03 A3013 RMK A01 T01810033  RH  037%=      5-min Rain = 0
KST1 051950Z 35019KT 18/03 A3013 RMK A01 T01820032  RH  037%=      5-min Rain = 0
KST1 051951Z 34020G25KT 18/03 A3012 RMK A01 T01830032  RH  037%=      5-min Rain = 0
KST1 051952Z 34021G26KT 18/03 A3012 RMK A01 T01830034  RH  037%=      5-min Rain = 0
KST1 051953Z 35017G22KT 18/03 A3012 RMK A01 T01820034  RH  037%=      5-min Rain = 0
KST1 051954Z 35020G31KT 18/03 A3012 RMK A01 T01820034  RH  037%=      5-min Rain = 0
KST1 051955Z 36024G30KT 19/03 A3012 RMK A01 T01850034  RH  037%=      5-min Rain = 0
KST1 051956Z 35022G28KT 18/03 A3013 RMK A01 T01830030  RH  036%=      5-min Rain = 0
KST1 051957Z 35019G24KT 18/03 A3013 RMK A01 T01780031  RH  037%=      5-min Rain = 0
KST1 051958Z 01018KT 18/03 A3012 RMK A01 T01800033  RH  037%=      5-min Rain = 0
KST1 051959Z 35024KT 18/03 A3012 RMK A01 T01780033  RH  038%=      5-min Rain = 0
KST1 052000Z 35023KT 18/03 A3012 RMK A01 T01810034  RH  038%=      5-min Rain = 0
KST1 052001Z 34019G24KT 18/03 A3012 RMK A01 T01810032  RH  037%=      5-min Rain = 0
KST1 052002Z 01022G30KT 18/03 A3012 RMK A01 T01810032  RH  037%=      5-min Rain = 0
KST1 052003Z 02023G28KT 18/03 A3012 RMK A01 T01840029  RH  036%=      5-min Rain = 0
KST1 052004Z 01024G30KT 19/03 A3012 RMK A01 T01850029  RH  035%=      5-min Rain = 0
KST1 052005Z 01026G33KT 19/03 A3012 RMK A01 T01850028  RH  035%=      5-min Rain = 0
KST1 052006Z 01021G26KT 18/03 A3012 RMK A01 T01840027  RH  035%=      5-min Rain = 0
KST1 052007Z 35019G24KT 19/03 A3012 RMK A01 T01860030  RH  035%=      5-min Rain = 0
KST1 052008Z 01019G25KT 19/03 A3012 RMK A01 T01890029  RH  035%=      5-min Rain = 0
KST1 052009Z 01020G28KT 19/03 A3012 RMK A01 T01860028  RH  035%=      5-min Rain = 0
KST1 052010Z 01023G30KT 19/03 A3012 RMK A01 T01860029  RH  035%=      5-min Rain = 0
KST1 052011Z 00022G27KT 19/03 A3012 RMK A01 T01890029  RH  035%=      5-min Rain = 0
KST1 052012Z 01019G28KT 19/03 A3012 RMK A01 T01870028  RH  035%=      5-min Rain = 0
KST1 052013Z 35019G28KT 19/03 A3012 RMK A01 T01880028  RH  034%=      5-min Rain = 0
KST1 052014Z 35025G32KT 19/02 A3012 RMK A01 T01900024  RH  033%=      5-min Rain = 0
KST1 052015Z 35026G32KT 19/02 A3012 RMK A01 T01880022  RH  033%=      5-min Rain = 0
KST1 052016Z 35025G31KT 19/02 A3012 RMK A01 T01860024  RH  034%=      5-min Rain = 0
KST1 052017Z 35022G28KT 19/03 A3012 RMK A01 T01900027  RH  034%=      5-min Rain = 0
KST1 052018Z 35023G30KT 19/03 A3012 RMK A01 T01910026  RH  033%=      5-min Rain = 0
KST1 052019Z 35023G30KT 19/03 A3012 RMK A01 T01900025  RH  033%=      5-min Rain = 0
KST1 052020Z 35017G23KT 19/02 A3012 RMK A01 T01860024  RH  034%=      5-min Rain = 0
KST1 052021Z 35024G29KT 18/02 A3012 RMK A01 T01840024  RH  034%=      5-min Rain = 0
KST1 052022Z 36024G30KT 19/02 A3012 RMK A01 T01850024  RH  034%=      5-min Rain = 0
KST1 052023Z 35024G30KT 19/03 A3012 RMK A01 T01890025  RH  034%=      5-min Rain = 0
KST1 052024Z 01023G28KT 19/03 A3012 RMK A01 T01890025  RH  034%=      5-min Rain = 0
KST1 052025Z 01021G26KT 19/03 A3012 RMK A01 T01870025  RH  034%=      5-min Rain = 0
KST1 052026Z 36020G29KT 19/03 A3012 RMK A01 T01860026  RH  034%=      5-min Rain = 0
KST1 052027Z 01021G27KT 19/03 A3012 RMK A01 T01870025  RH  034%=      5-min Rain = 0
KST1 052028Z 35018G23KT 19/03 A3012 RMK A01 T01910028  RH  034%=      5-min Rain = 0
KST1 052029Z 36025G30KT 19/03 A3012 RMK A01 T01930027  RH  033%=      5-min Rain = 0
KST1 052030Z 01026KT 19/03 A3012 RMK A01 T01920029  RH  034%=      5-min Rain = 0
KST1 052031Z 01022KT 19/03 A3012 RMK A01 T01910028  RH  034%=      5-min Rain = 0
KST1 052032Z 36021G27KT 19/03 A3012 RMK A01 T01880027  RH  034%=      5-min Rain = 0
KST1 052033Z 01025G33KT 19/03 A3012 RMK A01 T01920028  RH  034%=      5-min Rain = 0
KST1 052034Z 35024G31KT 19/03 A3012 RMK A01 T01900026  RH  034%=      5-min Rain = 0
KST1 052035Z 34026G33KT 19/03 A3012 RMK A01 T01890027  RH  034%=      5-min Rain = 0
KST1 052036Z 35024G30KT 19/03 A3012 RMK A01 T01900028  RH  034%=      5-min Rain = 0
KST1 052037Z 36024G30KT 19/03 A3012 RMK A01 T01900025  RH  033%=      5-min Rain = 0
KST1 052038Z 00019G26KT 19/03 A3012 RMK A01 T01880026  RH  034%=      5-min Rain = 0
KST1 052039Z 01024G31KT 19/03 A3012 RMK A01 T01870027  RH  034%=      5-min Rain = 0
KST1 052040Z 35024G31KT 19/03 A3012 RMK A01 T01850028  RH  035%=      5-min Rain = 0
KST1 052041Z 35025G32KT 19/03 A3012 RMK A01 T01870030  RH  035%=      5-min Rain = 0
KST1 052042Z 35021G30KT 19/03 A3013 RMK A01 T01860030  RH  035%=      5-min Rain = 0
KST1 052043Z 35021KT 19/03 A3013 RMK A01 T01850031  RH  036%=      5-min Rain = 0
KST1 052044Z 35020KT 19/03 A3013 RMK A01 T01850030  RH  036%=      5-min Rain = 0
KST1 052045Z 00019G24KT 18/03 A3013 RMK A01 T01830028  RH  036%=      5-min Rain = 0
KST1 052046Z 00021KT 18/03 A3013 RMK A01 T01810029  RH  036%=      5-min Rain = 0
KST1 052047Z 34024G30KT 18/03 A3013 RMK A01 T01830030  RH  036%=      5-min Rain = 0
KST1 052048Z 35026KT 18/03 A3013 RMK A01 T01840030  RH  036%=      5-min Rain = 0
KST1 052049Z 35025KT 18/03 A3013 RMK A01 T01840031  RH  036%=      5-min Rain = 0
KST1 052050Z 35019KT 18/03 A3013 RMK A01 T01840031  RH  036%=      5-min Rain = 0
KST1 052051Z 35021KT 18/03 A3013 RMK A01 T01840032  RH  036%=      5-min Rain = 0
KST1 052052Z 35020G25KT 19/03 A3013 RMK A01 T01860032  RH  036%=      5-min Rain = 0
KST1 052053Z 34020KT 19/03 A3013 RMK A01 T01870032  RH  036%=      5-min Rain = 0
KST1 052054Z 34021G26KT 19/03 A3013 RMK A01 T01890033  RH  035%=      5-min Rain = 0
KST1 052055Z 35022G28KT 19/03 A3013 RMK A01 T01860033  RH  036%=      5-min Rain = 0
KST1 052056Z 34021G28KT 19/03 A3013 RMK A01 T01860034  RH  036%=      5-min Rain = 0
KST1 052057Z 35026KT 19/03 A3013 RMK A01 T01890034  RH  036%=      5-min Rain = 0
KST1 052058Z 35020G26KT 19/03 A3013 RMK A01 T01870033  RH  036%=      5-min Rain = 0
KST1 052059Z 01021KT 19/03 A3013 RMK A01 T01880033  RH  036%=      5-min Rain = 0
KST1 052100Z 00025G33KT 19/03 A3013 RMK A01 T01870032  RH  036%=      5-min Rain = 0
KST1 052101Z 35026KT 19/03 A3013 RMK A01 T01870031  RH  035%=      5-min Rain = 0
KST1 052102Z 35022KT 19/03 A3013 RMK A01 T01850031  RH  036%=      5-min Rain = 0
KST1 052103Z 35021G26KT 19/03 A3013 RMK A01 T01850032  RH  036%=      5-min Rain = 0
KST1 052104Z 35023G28KT 19/03 A3013 RMK A01 T01860032  RH  036%=      5-min Rain = 0
KST1 052105Z 35022KT 19/03 A3013 RMK A01 T01870030  RH  035%=      5-min Rain = 0
KST1 052106Z 00019G24KT 19/03 A3013 RMK A01 T01860031  RH  036%=      5-min Rain = 0
KST1 052107Z 35024G29KT 19/03 A3014 RMK A01 T01880032  RH  035%=      5-min Rain = 0
KST1 052108Z 35021G26KT 19/04 A3014 RMK A01 T01870035  RH  036%=      5-min Rain = 0
KST1 052109Z 36020KT 19/03 A3013 RMK A01 T01880034  RH  036%=      5-min Rain = 0
KST1 052110Z 35023G28KT 18/03 A3013 RMK A01 T01840034  RH  037%=      5-min Rain = 0
KST1 052111Z 35024G29KT 19/04 A3014 RMK A01 T01880036  RH  036%=      5-min Rain = 0
KST1 052112Z 35023G28KT 19/03 A3014 RMK A01 T01880031  RH  035%=      5-min Rain = 0
KST1 052113Z 35022G29KT 19/03 A3014 RMK A01 T01860032  RH  036%=      5-min Rain = 0
KST1 052114Z 35023G29KT 19/03 A3014 RMK A01 T01860033  RH  036%=      5-min Rain = 0
KST1 052115Z 35019KT 18/03 A3014 RMK A01 T01830033  RH  037%=      5-min Rain = 0
KST1 052116Z 35017KT 19/04 A3014 RMK A01 T01860035  RH  037%=      5-min Rain = 0
KST1 052117Z 35022G30KT 19/03 A3013 RMK A01 T01850034  RH  037%=      5-min Rain = 0
KST1 052118Z 01021KT 18/04 A3013 RMK A01 T01840036  RH  037%=      5-min Rain = 0
KST1 052119Z 00020G26KT 18/03 A3014 RMK A01 T01820034  RH  037%=      5-min Rain = 0
KST1 052120Z 01024G30KT 18/04 A3013 RMK A01 T01820035  RH  038%=      5-min Rain = 0
KST1 052121Z 00025G30KT 18/04 A3014 RMK A01 T01810035  RH  038%=      5-min Rain = 0
KST1 052122Z 36024G29KT 18/04 A3014 RMK A01 T01830038  RH  038%=      5-min Rain = 0
KST1 052123Z 00023G28KT 19/04 A3014 RMK A01 T01860036  RH  037%=      5-min Rain = 0
KST1 052124Z 01025G31KT 18/03 A3014 RMK A01 T01810032  RH  037%=      5-min Rain = 0
KST1 052125Z 00024G29KT 18/03 A3014 RMK A01 T01780032  RH  038%=      5-min Rain = 0
KST1 052126Z 00021G29KT 18/03 A3014 RMK A01 T01750031  RH  038%=      5-min Rain = 0
KST1 052127Z 01025G30KT 18/03 A3014 RMK A01 T01750031  RH  038%=      5-min Rain = 0
KST1 052128Z 01021KT 17/03 A3014 RMK A01 T01740033  RH  039%=      5-min Rain = 0
KST1 052129Z 35024G30KT 17/03 A3014 RMK A01 T01730034  RH  039%=      5-min Rain = 0
KST1 052130Z 35024G29KT 17/03 A3014 RMK A01 T01730034  RH  040%=      5-min Rain = 0
KST1 052131Z 35023KT 17/03 A3014 RMK A01 T01720034  RH  040%=      5-min Rain = 0
KST1 052132Z 35024KT 17/03 A3014 RMK A01 T01720033  RH  040%=      5-min Rain = 0
KST1 052133Z 34023KT 17/03 A3014 RMK A01 T01710032  RH  040%=      5-min Rain = 0
KST1 052134Z 34020G25KT 17/03 A3014 RMK A01 T01720032  RH  039%=      5-min Rain = 0
KST1 052135Z 35024G30KT 18/04 A3014 RMK A01 T01760037  RH  040%=      5-min Rain = 0
KST1 052136Z 35022G28KT 18/04 A3014 RMK A01 T01800039  RH  039%=      5-min Rain = 0
KST1 052137Z 35025G30KT 18/04 A3014 RMK A01 T01830037  RH  038%=      5-min Rain = 0
KST1 052138Z 36024G29KT 18/04 A3014 RMK A01 T01820036  RH  038%=      5-min Rain = 0
KST1 052139Z 01023G29KT 18/04 A3014 RMK A01 T01820036  RH  038%=      5-min Rain = 0
KST1 052140Z 01026G31KT 18/04 A3014 RMK A01 T01820036  RH  038%=      5-min Rain = 0
KST1 052141Z 00024G30KT 18/04 A3014 RMK A01 T01830036  RH  038%=      5-min Rain = 0
KST1 052142Z 35021G26KT 18/03 A3015 RMK A01 T01830034  RH  037%=      5-min Rain = 0
KST1 052143Z 35020KT 18/03 A3015 RMK A01 T01810034  RH  038%=      5-min Rain = 0
KST1 052144Z 00026G32KT 18/03 A3015 RMK A01 T01810034  RH  038%=      5-min Rain = 0
KST1 052145Z 00025G31KT 18/03 A3015 RMK A01 T01810033  RH  037%=      5-min Rain = 0
KST1 052146Z 35024G29KT 18/03 A3015 RMK A01 T01800033  RH  037%=      5-min Rain = 0
KST1 052147Z 00021G26KT 18/03 A3015 RMK A01 T01790033  RH  038%=      5-min Rain = 0
KST1 052148Z 01017G24KT 18/03 A3015 RMK A01 T01750033  RH  039%=      5-min Rain = 0
KST1 052149Z 00022G27KT 18/04 A3015 RMK A01 T01760036  RH  039%=      5-min Rain = 0
KST1 052150Z 34023G28KT 18/03 A3015 RMK A01 T01780034  RH  038%=      5-min Rain = 0
KST1 052151Z 34020G25KT 18/03 A3015 RMK A01 T01760032  RH  038%=      5-min Rain = 0
KST1 052152Z 34024G29KT 18/03 A3015 RMK A01 T01770032  RH  038%=      5-min Rain = 0
KST1 052153Z 35026G31KT 18/03 A3015 RMK A01 T01760029  RH  038%=      5-min Rain = 0
KST1 052154Z 35024KT 18/03 A3015 RMK A01 T01750029  RH  038%=      5-min Rain = 0
KST1 052155Z 36020KT 18/03 A3015 RMK A01 T01750032  RH  038%=      5-min Rain = 0
KST1 052156Z 35022G28KT 18/03 A3015 RMK A01 T01780032  RH  038%=      5-min Rain = 0
KST1 052157Z 35024G31KT 18/03 A3015 RMK A01 T01770032  RH  038%=      5-min Rain = 0
KST1 052158Z 35024G30KT 18/03 A3015 RMK A01 T01780032  RH  038%=      5-min Rain = 0
KST1 052159Z 35026KT 18/03 A3015 RMK A01 T01780031  RH  037%=      5-min Rain = 0
KST1 052200Z 35022KT 18/03 A3015 RMK A01 T01770032  RH  038%=      5-min Rain = 0
KST1 052201Z 36025G32KT 18/03 A3015 RMK A01 T01760031  RH  038%=      5-min Rain = 0
KST1 052202Z 00024G30KT 18/03 A3015 RMK A01 T01760031  RH  038%=      5-min Rain = 0
KST1 052203Z 36025KT 18/03 A3015 RMK A01 T01770032  RH  038%=      5-min Rain = 0
KST1 052204Z 36025KT 18/03 A3015 RMK A01 T01770032  RH  038%=      5-min Rain = 0
KST1 052205Z 36020KT 18/03 A3015 RMK A01 T01760031  RH  038%=      5-min Rain = 0
KST1 052206Z 34018G23KT 18/03 A3015 RMK A01 T01760031  RH  038%=      5-min Rain = 0
KST1 052207Z 36019KT 18/03 A3015 RMK A01 T01760032  RH  038%=      5-min Rain = 0
KST1 052208Z 01023G28KT 18/03 A3015 RMK A01 T01770032  RH  038%=      5-min Rain = 0
KST1 052209Z 35025G30KT 18/03 A3015 RMK A01 T01760030  RH  038%=      5-min Rain = 0
KST1 052210Z 35022G27KT 17/03 A3015 RMK A01 T01730029  RH  038%=      5-min Rain = 0
KST1 052211Z 35022G27KT 17/03 A3016 RMK A01 T01740029  RH  038%=      5-min Rain = 0
KST1 052212Z 00022G28KT 17/03 A3016 RMK A01 T01730029  RH  038%=      5-min Rain = 0
KST1 052213Z 35022G27KT 18/03 A3016 RMK A01 T01750032  RH  038%=      5-min Rain = 0
KST1 052214Z 36020KT 18/03 A3016 RMK A01 T01750032  RH  038%=      5-min Rain = 0
KST1 052215Z 35021KT 18/03 A3016 RMK A01 T01780033  RH  038%=      5-min Rain = 0
KST1 052216Z 34016G21KT 18/03 A3016 RMK A01 T01790032  RH  038%=      5-min Rain = 0
KST1 052217Z 35019KT 18/03 A3016 RMK A01 T01770032  RH  038%=      5-min Rain = 0
KST1 052218Z 35022G27KT 18/03 A3016 RMK A01 T01800034  RH  038%=      5-min Rain = 0
KST1 052219Z 35025KT 18/03 A3016 RMK A01 T01810032  RH  037%=      5-min Rain = 0
KST1 052220Z 01021KT 18/03 A3016 RMK A01 T01760029  RH  037%=      5-min Rain = 0
KST1 052221Z 02022G27KT 17/03 A3015 RMK A01 T01740031  RH  038%=      5-min Rain = 0
KST1 052222Z 00022KT 17/03 A3016 RMK A01 T01730030  RH  038%=      5-min Rain = 0
KST1 052223Z 35021KT 17/03 A3016 RMK A01 T01720030  RH  039%=      5-min Rain = 0
KST1 052224Z 35019G24KT 17/03 A3016 RMK A01 T01690029  RH  039%=      5-min Rain = 0
KST1 052225Z 00023KT 17/03 A3016 RMK A01 T01680028  RH  039%=      5-min Rain = 0
KST1 052226Z 36023G28KT 17/03 A3016 RMK A01 T01670028  RH  039%=      5-min Rain = 0
KST1 052227Z 35024KT 17/03 A3016 RMK A01 T01670027  RH  039%=      5-min Rain = 0
KST1 052228Z 35020KT 17/03 A3016 RMK A01 T01670028  RH  039%=      5-min Rain = 0
KST1 052229Z 35019KT 17/03 A3016 RMK A01 T01680029  RH  039%=      5-min Rain = 0
KST1 052230Z 00018G23KT 17/03 A3016 RMK A01 T01690030  RH  039%=      5-min Rain = 0
KST1 052231Z 01020G25KT 17/03 A3016 RMK A01 T01690030  RH  039%=      5-min Rain = 0
KST1 052232Z 01023G28KT 17/03 A3016 RMK A01 T01690029  RH  039%=      5-min Rain = 0
KST1 052233Z 00021G26KT 17/03 A3016 RMK A01 T01670026  RH  039%=      5-min Rain = 0
KST1 052234Z 00021KT 17/03 A3016 RMK A01 T01660026  RH  039%=      5-min Rain = 0
KST1 052235Z 01019KT 16/03 A3016 RMK A01 T01640025  RH  039%=      5-min Rain = 0
KST1 052236Z 01021G29KT 17/03 A3016 RMK A01 T01650029  RH  040%=      5-min Rain = 0
KST1 052237Z 01023G28KT 17/03 A3016 RMK A01 T01690030  RH  039%=      5-min Rain = 0
KST1 052238Z 35024G30KT 17/03 A3016 RMK A01 T01680028  RH  039%=      5-min Rain = 0
KST1 052239Z 00024G29KT 17/03 A3016 RMK A01 T01670027  RH  039%=      5-min Rain = 0
KST1 052240Z 00026KT 17/03 A3016 RMK A01 T01660027  RH  039%=      5-min Rain = 0
KST1 052241Z 01025KT 17/03 A3016 RMK A01 T01660026  RH  039%=      5-min Rain = 0
KST1 052242Z 01024G29KT 16/03 A3017 RMK A01 T01640026  RH  039%=      5-min Rain = 0
KST1 052243Z 01022KT 16/02 A3017 RMK A01 T01630024  RH  039%=      5-min Rain = 0
KST1 052244Z 35021G26KT 16/02 A3017 RMK A01 T01620023  RH  039%=      5-min Rain = 0
KST1 052245Z 35022G30KT 16/02 A3017 RMK A01 T01630022  RH  039%=      5-min Rain = 0
KST1 052246Z 01023KT 17/02 A3017 RMK A01 T01670024  RH  038%=      5-min Rain = 0
KST1 052247Z 00022KT 17/02 A3017 RMK A01 T01670022  RH  038%=      5-min Rain = 0
KST1 052248Z 35020KT 17/02 A3017 RMK A01 T01670023  RH  038%=      5-min Rain = 0
KST1 052249Z 35024G29KT 17/02 A3017 RMK A01 T01670024  RH  038%=      5-min Rain = 0
KST1 052250Z 00027KT 17/02 A3017 RMK A01 T01670024  RH  038%=      5-min Rain = 0
KST1 052251Z 01025KT 17/02 A3017 RMK A01 T01660024  RH  038%=      5-min Rain = 0
KST1 052252Z 01025G30KT 17/02 A3017 RMK A01 T01650024  RH  039%=      5-min Rain = 0
KST1 052253Z 00026KT 17/02 A3017 RMK A01 T01650023  RH  038%=      5-min Rain = 0
KST1 052254Z 01024KT 16/02 A3017 RMK A01 T01640022  RH  038%=      5-min Rain = 0
KST1 052255Z 36022G27KT 16/02 A3017 RMK A01 T01630022  RH  039%=      5-min Rain = 0
KST1 052256Z 00023G28KT 16/02 A3017 RMK A01 T01640023  RH  039%=      5-min Rain = 0
KST1 052257Z 01022G28KT 16/02 A3017 RMK A01 T01640022  RH  038%=      5-min Rain = 0
KST1 052258Z 01024G29KT 17/02 A3017 RMK A01 T01650023  RH  038%=      5-min Rain = 0
KST1 052259Z 01021G27KT 17/02 A3018 RMK A01 T01650023  RH  038%=      5-min Rain = 0
KST1 052300Z 01022G29KT 17/02 A3017 RMK A01 T01650023  RH  038%=      5-min Rain = 0
KST1 052301Z 01021KT 17/02 A3018 RMK A01 T01650023  RH  038%=      5-min Rain = 0
KST1 052302Z 00021KT 17/02 A3018 RMK A01 T01660022  RH  038%=      5-min Rain = 0
KST1 052303Z 36024G30KT 17/02 A3018 RMK A01 T01650022  RH  038%=      5-min Rain = 0
KST1 052304Z 36024KT 16/02 A3018 RMK A01 T01640022  RH  038%=      5-min Rain = 0
KST1 052305Z 36020G26KT 16/02 A3018 RMK A01 T01630023  RH  039%=      5-min Rain = 0
KST1 052306Z 35021G26KT 16/02 A3018 RMK A01 T01640023  RH  039%=      5-min Rain = 0
KST1 052307Z 01023KT 16/02 A3018 RMK A01 T01640023  RH  039%=      5-min Rain = 0
KST1 052308Z 01021G26KT 16/02 A3018 RMK A01 T01640022  RH  038%=      5-min Rain = 0
KST1 052309Z 01021KT 16/02 A3018 RMK A01 T01640023  RH  039%=      5-min Rain = 0
KST1 052310Z 01022G27KT 16/02 A3018 RMK A01 T01640023  RH  039%=      5-min Rain = 0
KST1 052311Z 01019KT 16/02 A3018 RMK A01 T01630023  RH  039%=      5-min Rain = 0
KST1 052312Z 01019G28KT 16/02 A3018 RMK A01 T01630024  RH  039%=      5-min Rain = 0
KST1 052313Z 00023G28KT 16/03 A3018 RMK A01 T01630026  RH  040%=      5-min Rain = 0
KST1 052314Z 00024G30KT 16/03 A3018 RMK A01 T01630026  RH  040%=      5-min Rain = 0
KST1 052315Z 01025KT 16/03 A3018 RMK A01 T01620025  RH  040%=      5-min Rain = 0
KST1 052316Z 01022G29KT 16/03 A3018 RMK A01 T01610025  RH  040%=      5-min Rain = 0
KST1 052317Z 01026KT 16/02 A3018 RMK A01 T01610024  RH  040%=      5-min Rain = 0
KST1 052318Z 01022KT 16/02 A3019 RMK A01 T01590023  RH  040%=      5-min Rain = 0
KST1 052319Z 01023G28KT 16/02 A3019 RMK A01 T01590023  RH  040%=      5-min Rain = 0
KST1 052320Z 36024KT 16/02 A3019 RMK A01 T01590023  RH  040%=      5-min Rain = 0
KST1 052321Z 00021G26KT 16/02 A3019 RMK A01 T01590023  RH  040%=      5-min Rain = 0
KST1 052322Z 00021KT 16/02 A3019 RMK A01 T01580022  RH  040%=      5-min Rain = 0
KST1 052323Z 00021KT 16/02 A3019 RMK A01 T01550021  RH  040%=      5-min Rain = 0
KST1 052324Z 00020KT 15/02 A3019 RMK A01 T01540021  RH  041%=      5-min Rain = 0
KST1 052325Z 00021KT 16/02 A3019 RMK A01 T01550023  RH  041%=      5-min Rain = 0
KST1 052326Z 00022G29KT 16/02 A3019 RMK A01 T01570023  RH  041%=      5-min Rain = 0
KST1 052327Z 00022G28KT 16/02 A3019 RMK A01 T01570023  RH  040%=      5-min Rain = 0
KST1 052328Z 01023G28KT 16/02 A3019 RMK A01 T01580023  RH  040%=      5-min Rain = 0
KST1 052329Z 01022G27KT 16/02 A3019 RMK A01 T01580023  RH  040%=      5-min Rain = 0
KST1 052330Z 00023KT 16/02 A3019 RMK A01 T01570022  RH  040%=      5-min Rain = 0
KST1 052331Z 00020G27KT 16/02 A3019 RMK A01 T01570022  RH  040%=      5-min Rain = 0
KST1 052332Z 36022KT 16/02 A3019 RMK A01 T01560021  RH  040%=      5-min Rain = 0
KST1 052333Z 35022G27KT 16/02 A3019 RMK A01 T01550021  RH  040%=      5-min Rain = 0
KST1 052334Z 35021KT 15/02 A3019 RMK A01 T01540020  RH  040%=      5-min Rain = 0
KST1 052335Z 35021KT 15/02 A3019 RMK A01 T01540021  RH  041%=      5-min Rain = 0
KST1 052336Z 35020G25KT 15/02 A3019 RMK A01 T01530021  RH  041%=      5-min Rain = 0
KST1 052337Z 35020KT 15/02 A3019 RMK A01 T01530021  RH  041%=      5-min Rain = 0
KST1 052338Z 36019KT 15/02 A302 RMK A01 T01540022  RH  041%=      5-min Rain = 0
KST1 052339Z 01024G29KT 16/02 A3019 RMK A01 T01550022  RH  041%=      5-min Rain = 0
KST1 052340Z 01021G26KT 15/02 A302 RMK A01 T01540021  RH  041%=      5-min Rain = 0
KST1 052341Z 01022KT 15/02 A302 RMK A01 T01540022  RH  041%=      5-min Rain = 0
KST1 052342Z 01020G26KT 15/02 A302 RMK A01 T01540022  RH  041%=      5-min Rain = 0
KST1 052343Z 01020KT 15/02 A302 RMK A01 T01540022  RH  041%=      5-min Rain = 0
KST1 052344Z 01020G26KT 15/02 A302 RMK A01 T01520022  RH  042%=      5-min Rain = 0
KST1 052345Z 00020G25KT 15/02 A302 RMK A01 T01510022  RH  042%=      5-min Rain = 0
KST1 052346Z 36023KT 15/02 A302 RMK A01 T01500021  RH  042%=      5-min Rain = 0
KST1 052347Z 35022G27KT 15/02 A302 RMK A01 T01500020  RH  041%=      5-min Rain = 0
KST1 052348Z 35023G28KT 15/02 A302 RMK A01 T01500019  RH  041%=      5-min Rain = 0
KST1 052349Z 36022KT 15/02 A302 RMK A01 T01500019  RH  041%=      5-min Rain = 0
KST1 052350Z 01021G26KT 15/02 A302 RMK A01 T01510019  RH  041%=      5-min Rain = 0
KST1 052351Z 01017KT 15/02 A302 RMK A01 T01510021  RH  041%=      5-min Rain = 0
KST1 052352Z 02020G27KT 15/02 A302 RMK A01 T01510021  RH  042%=      5-min Rain = 0
KST1 052353Z 01022G27KT 15/02 A302 RMK A01 T01500020  RH  041%=      5-min Rain = 0
KST1 052354Z 01022KT 15/02 A302 RMK A01 T01490019  RH  041%=      5-min Rain = 0
KST1 052355Z 01022KT 15/02 A302 RMK A01 T01470019  RH  042%=      5-min Rain = 0
KST1 052356Z 01022KT 15/02 A302 RMK A01 T01470019  RH  042%=      5-min Rain = 0
KST1 052357Z 01023KT 15/02 A302 RMK A01 T01460019  RH  042%=      5-min Rain = 0
KST1 052358Z 01022KT 15/02 A302 RMK A01 T01460019  RH  042%=      5-min Rain = 0
KST1 052359Z 01021G28KT 15/02 A3021 RMK A01 T01470019  RH  042%=      5-min Rain = 0
KST1 060000Z 00021G26KT 15/02 A3021 RMK A01 T01470019  RH  042%=      5-min Rain = 0
KST1 060001Z 01022G27KT 15/02 A3021 RMK A01 T01460018  RH  042%=      5-min Rain = 0
KST1 060002Z 00022G27KT 15/02 A3021 RMK A01 T01450018  RH  042%=      5-min Rain = 0
KST1 060003Z 01022KT 14/02 A3021 RMK A01 T01440018  RH  042%=      5-min Rain = 0
KST1 060004Z 00023G28KT 14/02 A3021 RMK A01 T01430018  RH  043%=      5-min Rain = 0
KST1 060005Z 00021KT 14/02 A3021 RMK A01 T01420019  RH  043%=      5-min Rain = 0
KST1 060006Z 01023G28KT 14/02 A3021 RMK A01 T01420019  RH  043%=      5-min Rain = 0
KST1 060007Z 01020G26KT 14/02 A3021 RMK A01 T01410019  RH  043%=      5-min Rain = 0
KST1 060008Z 00021KT 14/02 A3021 RMK A01 T01410019  RH  044%=      5-min Rain = 0
KST1 060009Z 01023KT 14/02 A3021 RMK A01 T01420020  RH  044%=      5-min Rain = 0
KST1 060010Z 01023KT 14/02 A3021 RMK A01 T01420020  RH  044%=      5-min Rain = 0
KST1 060011Z 01021KT 14/02 A3021 RMK A01 T01420020  RH  044%=      5-min Rain = 0
KST1 060012Z 01019G25KT 14/02 A3021 RMK A01 T01410021  RH  044%=      5-min Rain = 0
KST1 060013Z 01020G25KT 14/02 A3022 RMK A01 T01410021  RH  044%=      5-min Rain = 0
KST1 060014Z 01019KT 14/02 A3022 RMK A01 T01410021  RH  044%=      5-min Rain = 0
KST1 060015Z 01019KT 14/02 A3022 RMK A01 T01410021  RH  044%=      5-min Rain = 0
KST1 060016Z 02020G25KT 14/02 A3022 RMK A01 T01410020  RH  044%=      5-min Rain = 0
KST1 060017Z 02022KT 14/02 A3022 RMK A01 T01400020  RH  044%=      5-min Rain = 0
KST1 060018Z 02018KT 14/02 A3022 RMK A01 T01400020  RH  044%=      5-min Rain = 0
KST1 060019Z 01022G29KT 14/02 A3022 RMK A01 T01410021  RH  044%=      5-min Rain = 0
KST1 060020Z 01023KT 14/02 A3022 RMK A01 T01410021  RH  044%=      5-min Rain = 0
KST1 060021Z 01022KT 14/02 A3022 RMK A01 T01400021  RH  045%=      5-min Rain = 0
KST1 060022Z 01023G30KT 14/02 A3022 RMK A01 T01400021  RH  045%=      5-min Rain = 0
KST1 060023Z 02024G30KT 14/02 A3022 RMK A01 T01390020  RH  045%=      5-min Rain = 0
KST1 060024Z 01025KT 14/02 A3022 RMK A01 T01380020  RH  045%=      5-min Rain = 0
KST1 060025Z 02024KT 14/02 A3022 RMK A01 T01370020  RH  045%=      5-min Rain = 0
KST1 060026Z 02024KT 14/02 A3022 RMK A01 T01370019  RH  045%=      5-min Rain = 0
KST1 060027Z 01021KT 14/02 A3022 RMK A01 T01360020  RH  045%=      5-min Rain = 0
KST1 060028Z 02021G28KT 14/02 A3022 RMK A01 T01360020  RH  045%=      5-min Rain = 0
KST1 060029Z 01022KT 14/02 A3022 RMK A01 T01360020  RH  045%=      5-min Rain = 0
KST1 060030Z 01021G26KT 14/02 A3022 RMK A01 T01360020  RH  045%=      5-min Rain = 0
KST1 060031Z 01023KT 14/02 A3022 RMK A01 T01350020  RH  046%=      5-min Rain = 0
KST1 060032Z 01022KT 14/02 A3023 RMK A01 T01350020  RH  046%=      5-min Rain = 0
KST1 060033Z 01019G24KT 14/02 A3023 RMK A01 T01350019  RH  046%=      5-min Rain = 0
KST1 060034Z 01021G27KT 13/02 A3023 RMK A01 T01340020  RH  046%=      5-min Rain = 0
KST1 060035Z 01022G28KT 13/02 A3023 RMK A01 T01340019  RH  046%=      5-min Rain = 0
KST1 060036Z 02021KT 13/02 A3023 RMK A01 T01330019  RH  046%=      5-min Rain = 0
KST1 060037Z 01022KT 13/02 A3023 RMK A01 T01330018  RH  046%=      5-min Rain = 0
KST1 060038Z 01023KT 13/02 A3023 RMK A01 T01320018  RH  046%=      5-min Rain = 0
KST1 060039Z 01022KT 13/02 A3023 RMK A01 T01320017  RH  046%=      5-min Rain = 0
KST1 060040Z 01024KT 13/02 A3023 RMK A01 T01320017  RH  046%=      5-min Rain = 0
KST1 060041Z 01022G27KT 13/02 A3023 RMK A01 T01310017  RH  046%=      5-min Rain = 0
KST1 060042Z 01020G25KT 13/02 A3023 RMK A01 T01310017  RH  046%=      5-min Rain = 0
KST1 060043Z 01019KT 13/02 A3023 RMK A01 T01300017  RH  046%=      5-min Rain = 0
KST1 060044Z 01020KT 13/02 A3023 RMK A01 T01300016  RH  046%=      5-min Rain = 0
KST1 060045Z 01020KT 13/02 A3023 RMK A01 T01290016  RH  046%=      5-min Rain = 0
KST1 060046Z 01021KT 13/02 A3023 RMK A01 T01280016  RH  046%=      5-min Rain = 0
KST1 060047Z 01020G25KT 13/02 A3023 RMK A01 T01280017  RH  047%=      5-min Rain = 0
KST1 060048Z 01019KT 13/02 A3023 RMK A01 T01280017  RH  047%=      5-min Rain = 0
KST1 060049Z 01019KT 13/02 A3023 RMK A01 T01270017  RH  047%=      5-min Rain = 0
KST1 060050Z 01019G24KT 13/02 A3024 RMK A01 T01270017  RH  047%=      5-min Rain = 0
KST1 060051Z 02018KT 13/02 A3024 RMK A01 T01270018  RH  047%=      5-min Rain = 0
KST1 060052Z 01017G23KT 13/02 A3024 RMK A01 T01270018  RH  047%=      5-min Rain = 0
KST1 060053Z 01019KT 13/02 A3024 RMK A01 T01270018  RH  047%=      5-min Rain = 0
KST1 060054Z 01019KT 13/02 A3024 RMK A01 T01270018  RH  047%=      5-min Rain = 0
KST1 060055Z 01018KT 13/02 A3024 RMK A01 T01270018  RH  047%=      5-min Rain = 0
KST1 060056Z 01018G24KT 13/02 A3024 RMK A01 T01270018  RH  047%=      5-min Rain = 0
KST1 060057Z 02018G23KT 13/02 A3024 RMK A01 T01270017  RH  047%=      5-min Rain = 0
KST1 060058Z 02018KT 13/02 A3024 RMK A01 T01270017  RH  047%=      5-min Rain = 0
KST1 060059Z 01016KT 13/02 A3024 RMK A01 T01270017  RH  047%=      5-min Rain = 0
KST1 060100Z 01017KT 13/02 A3024 RMK A01 T01270018  RH  047%=      5-min Rain = 0
KST1 060101Z 01020KT 13/02 A3024 RMK A01 T01270018  RH  047%=      5-min Rain = 0
KST1 060102Z 01020KT 13/02 A3024 RMK A01 T01270017  RH  047%=      5-min Rain = 0
KST1 060103Z 01020KT 13/02 A3024 RMK A01 T01270017  RH  047%=      5-min Rain = 0
KST1 060104Z 01019KT 13/02 A3024 RMK A01 T01270017  RH  047%=      5-min Rain = 0
KST1 060105Z 02019KT 13/02 A3024 RMK A01 T01260017  RH  047%=      5-min Rain = 0
KST1 060106Z 02020KT 13/02 A3024 RMK A01 T01260017  RH  047%=      5-min Rain = 0
KST1 060107Z 02019KT 13/02 A3024 RMK A01 T01260017  RH  047%=      5-min Rain = 0
KST1 060108Z 02018G23KT 13/02 A3024 RMK A01 T01260017  RH  047%=      5-min Rain = 0
KST1 060109Z 02019KT 13/02 A3024 RMK A01 T01260017  RH  047%=      5-min Rain = 0
KST1 060110Z 02018KT 13/02 A3025 RMK A01 T01260017  RH  047%=      5-min Rain = 0
KST1 060111Z 02019G24KT 13/02 A3025 RMK A01 T01260017  RH  048%=      5-min Rain = 0
KST1 060112Z 02019KT 13/02 A3024 RMK A01 T01260017  RH  047%=      5-min Rain = 0
KST1 060113Z 02019KT 13/02 A3025 RMK A01 T01260017  RH  047%=      5-min Rain = 0
KST1 060114Z 01018KT 13/02 A3025 RMK A01 T01260017  RH  048%=      5-min Rain = 0
KST1 060115Z 01017KT 13/02 A3025 RMK A01 T01260018  RH  048%=      5-min Rain = 0
KST1 060116Z 01017KT 13/02 A3025 RMK A01 T01260018  RH  048%=      5-min Rain = 0
KST1 060117Z 02017KT 13/02 A3025 RMK A01 T01260018  RH  048%=      5-min Rain = 0
KST1 060118Z 01016KT 13/02 A3025 RMK A01 T01260018  RH  048%=      5-min Rain = 0
KST1 060119Z 02014KT 13/02 A3025 RMK A01 T01250018  RH  048%=      5-min Rain = 0
KST1 060120Z 01014KT 13/02 A3025 RMK A01 T01250018  RH  048%=      5-min Rain = 0
KST1 060121Z 01015KT 13/02 A3025 RMK A01 T01250018  RH  048%=      5-min Rain = 0
KST1 060122Z 02014KT 13/02 A3025 RMK A01 T01250018  RH  048%=      5-min Rain = 0
KST1 060123Z 01013KT 12/02 A3025 RMK A01 T01240018  RH  048%=      5-min Rain = 0
KST1 060124Z 01014KT 12/02 A3025 RMK A01 T01240018  RH  049%=      5-min Rain = 0
KST1 060125Z 01016KT 12/02 A3025 RMK A01 T01240018  RH  049%=      5-min Rain = 0
KST1 060126Z 01017KT 12/02 A3025 RMK A01 T01230018  RH  049%=      5-min Rain = 0
KST1 060127Z 01015KT 12/02 A3025 RMK A01 T01230019  RH  049%=      5-min Rain = 0
KST1 060128Z 01018KT 12/02 A3025 RMK A01 T01230019  RH  049%=      5-min Rain = 0
KST1 060129Z 01017KT 12/02 A3025 RMK A01 T01230019  RH  049%=      5-min Rain = 0
KST1 060130Z 01017G22KT 12/02 A3025 RMK A01 T01230019  RH  049%=      5-min Rain = 0
KST1 060131Z 01021G26KT 12/02 A3025 RMK A01 T01230020  RH  049%=      5-min Rain = 0
KST1 060132Z 01019KT 12/02 A3025 RMK A01 T01220020  RH  050%=      5-min Rain = 0
KST1 060133Z 01020KT 12/02 A3025 RMK A01 T01220020  RH  050%=      5-min Rain = 0
KST1 060134Z 01020KT 12/02 A3025 RMK A01 T01220021  RH  050%=      5-min Rain = 0
KST1 060135Z 01020KT 12/02 A3025 RMK A01 T01220020  RH  050%=      5-min Rain = 0
KST1 060136Z 01019G24KT 12/02 A3026 RMK A01 T01210020  RH  050%=      5-min Rain = 0
KST1 060137Z 01018KT 12/02 A3026 RMK A01 T01210020  RH  050%=      5-min Rain = 0
KST1 060138Z 01019KT 12/02 A3026 RMK A01 T01200020  RH  050%=      5-min Rain = 0
KST1 060139Z 01017KT 12/02 A3026 RMK A01 T01200020  RH  050%=      5-min Rain = 0
KST1 060140Z 01021G26KT 12/02 A3026 RMK A01 T01200020  RH  051%=      5-min Rain = 0
KST1 060141Z 01021KT 12/02 A3026 RMK A01 T01200020  RH  050%=      5-min Rain = 0
KST1 060142Z 01021KT 12/02 A3026 RMK A01 T01200020  RH  050%=      5-min Rain = 0
KST1 060143Z 01018KT 12/02 A3026 RMK A01 T01200020  RH  050%=      5-min Rain = 0
KST1 060144Z 01021G26KT 12/02 A3026 RMK A01 T01190020  RH  051%=      5-min Rain = 0
KST1 060145Z 01021G26KT 12/02 A3026 RMK A01 T01180019  RH  051%=      5-min Rain = 0
KST1 060146Z 01020KT 12/02 A3026 RMK A01 T01180019  RH  051%=      5-min Rain = 0
KST1 060147Z 01019KT 12/02 A3026 RMK A01 T01180019  RH  051%=      5-min Rain = 0
KST1 060148Z 01018G23KT 12/02 A3026 RMK A01 T01180019  RH  051%=      5-min Rain = 0
KST1 060149Z 01020KT 12/02 A3026 RMK A01 T01180020  RH  051%=      5-min Rain = 0
KST1 060150Z 01018KT 12/02 A3026 RMK A01 T01180020  RH  051%=      5-min Rain = 0
KST1 060151Z 01019KT 12/02 A3026 RMK A01 T01180020  RH  051%=      5-min Rain = 0
KST1 060152Z 01018KT 12/02 A3026 RMK A01 T01180020  RH  051%=      5-min Rain = 0
KST1 060153Z 01019G24KT 12/02 A3026 RMK A01 T01170020  RH  051%=      5-min Rain = 0
KST1 060154Z 01021KT 12/02 A3026 RMK A01 T01170020  RH  051%=      5-min Rain = 0
KST1 060155Z 01021KT 12/02 A3026 RMK A01 T01170021  RH  052%=      5-min Rain = 0
KST1 060156Z 00019KT 12/02 A3026 RMK A01 T01170021  RH  052%=      5-min Rain = 0
KST1 060157Z 01020KT 12/02 A3027 RMK A01 T01180021  RH  052%=      5-min Rain = 0
KST1 060158Z 01018G23KT 12/02 A3027 RMK A01 T01180021  RH  052%=      5-min Rain = 0
KST1 060159Z 01017KT 12/02 A3027 RMK A01 T01180021  RH  052%=      5-min Rain = 0
KST1 060200Z 01015KT 12/02 A3027 RMK A01 T01180022  RH  052%=      5-min Rain = 0
KST1 060201Z 01017KT 12/02 A3027 RMK A01 T01180022  RH  052%=      5-min Rain = 0
KST1 060202Z 00017KT 12/02 A3027 RMK A01 T01180022  RH  052%=      5-min Rain = 0
KST1 060203Z 00018KT 12/02 A3027 RMK A01 T01180022  RH  052%=      5-min Rain = 0
KST1 060204Z 01018G23KT 12/02 A3027 RMK A01 T01190022  RH  051%=      5-min Rain = 0
KST1 060205Z 01014KT 12/02 A3027 RMK A01 T01190022  RH  051%=      5-min Rain = 0
KST1 060206Z 01016G22KT 12/02 A3027 RMK A01 T01190023  RH  052%=      5-min Rain = 0
KST1 060207Z 00019KT 12/02 A3027 RMK A01 T01190022  RH  052%=      5-min Rain = 0
KST1 060208Z 01016KT 12/02 A3027 RMK A01 T01190022  RH  052%=      5-min Rain = 0
KST1 060209Z 01016KT 12/02 A3027 RMK A01 T01190022  RH  052%=      5-min Rain = 0
KST1 060210Z 00017KT 12/02 A3027 RMK A01 T01190022  RH  052%=      5-min Rain = 0
KST1 060211Z 01016KT 12/02 A3027 RMK A01 T01190022  RH  052%=      5-min Rain = 0
KST1 060212Z 01015KT 12/02 A3027 RMK A01 T01190022  RH  052%=      5-min Rain = 0
KST1 060213Z 01014KT 12/02 A3027 RMK A01 T01190023  RH  052%=      5-min Rain = 0
KST1 060214Z 01019KT 12/02 A3027 RMK A01 T01190022  RH  052%=      5-min Rain = 0
KST1 060215Z 01019KT 12/02 A3027 RMK A01 T01190021  RH  051%=      5-min Rain = 0
KST1 060216Z 01019KT 12/02 A3027 RMK A01 T01190019  RH  050%=      5-min Rain = 0
KST1 060217Z 01018KT 12/02 A3027 RMK A01 T01200020  RH  050%=      5-min Rain = 0
KST1 060218Z 01017KT 12/02 A3027 RMK A01 T01190021  RH  051%=      5-min Rain = 0
KST1 060219Z 01017KT 12/02 A3027 RMK A01 T01190020  RH  051%=      5-min Rain = 0
KST1 060220Z 02017KT 12/02 A3028 RMK A01 T01190020  RH  051%=      5-min Rain = 0
KST1 060221Z 01016KT 12/02 A3028 RMK A01 T01190020  RH  051%=      5-min Rain = 0
KST1 060222Z 02015KT 12/02 A3028 RMK A01 T01190019  RH  050%=      5-min Rain = 0
KST1 060223Z 02014KT 12/02 A3028 RMK A01 T01180019  RH  051%=      5-min Rain = 0
KST1 060224Z 01018KT 12/02 A3028 RMK A01 T01180019  RH  051%=      5-min Rain = 0
KST1 060225Z 02017KT 12/02 A3028 RMK A01 T01180018  RH  050%=      5-min Rain = 0
KST1 060226Z 01015KT 12/02 A3028 RMK A01 T01180018  RH  050%=      5-min Rain = 0
KST1 060227Z 01017KT 12/02 A3028 RMK A01 T01180018  RH  050%=      5-min Rain = 0
KST1 060228Z 01015KT 12/02 A3028 RMK A01 T01180018  RH  050%=      5-min Rain = 0
KST1 060229Z 01014KT 12/02 A3028 RMK A01 T01180018  RH  050%=      5-min Rain = 0
KST1 060230Z 02015KT 12/02 A3028 RMK A01 T01180018  RH  050%=      5-min Rain = 0
KST1 060231Z 01016KT 12/02 A3028 RMK A01 T01180018  RH  050%=      5-min Rain = 0
KST1 060232Z 01014KT 12/02 A3028 RMK A01 T01180018  RH  050%=      5-min Rain = 0
KST1 060233Z 01013KT 12/02 A3028 RMK A01 T01180018  RH  050%=      5-min Rain = 0
KST1 060234Z 01012KT 12/02 A3028 RMK A01 T01180018  RH  051%=      5-min Rain = 0
KST1 060235Z 02012KT 12/02 A3028 RMK A01 T01180019  RH  051%=      5-min Rain = 0
KST1 060236Z 01013KT 12/02 A3028 RMK A01 T01170019  RH  051%=      5-min Rain = 0
KST1 060237Z 01013KT 12/02 A3028 RMK A01 T01170018  RH  051%=      5-min Rain = 0
KST1 060238Z 01013KT 12/02 A3028 RMK A01 T01180019  RH  051%=      5-min Rain = 0
KST1 060239Z 01013KT 12/02 A3028 RMK A01 T01180019  RH  051%=      5-min Rain = 0
KST1 060240Z 01012KT 12/02 A3028 RMK A01 T01180019  RH  051%=      5-min Rain = 0
KST1 060241Z 02013KT 12/02 A3028 RMK A01 T01180020  RH  051%=      5-min Rain = 0
KST1 060242Z 02013KT 12/02 A3028 RMK A01 T01180020  RH  051%=      5-min Rain = 0
KST1 060243Z 02012KT 12/02 A3028 RMK A01 T01180020  RH  051%=      5-min Rain = 0
KST1 060244Z 02012KT 12/02 A3028 RMK A01 T01180021  RH  051%=      5-min Rain = 0
KST1 060245Z 02014KT 12/02 A3028 RMK A01 T01180021  RH  052%=      5-min Rain = 0
KST1 060246Z 02013KT 12/02 A3028 RMK A01 T01170021  RH  052%=      5-min Rain = 0
KST1 060247Z 02014KT 12/02 A3028 RMK A01 T01170021  RH  052%=      5-min Rain = 0
KST1 060248Z 02012KT 12/02 A3028 RMK A01 T01170021  RH  052%=      5-min Rain = 0
KST1 060249Z 02012KT 12/02 A3028 RMK A01 T01160021  RH  052%=      5-min Rain = 0
KST1 060250Z 02014KT 12/02 A3028 RMK A01 T01150021  RH  052%=      5-min Rain = 0
KST1 060251Z 02015KT 11/02 A3028 RMK A01 T01140021  RH  053%=      5-min Rain = 0
KST1 060252Z 02015KT 11/02 A3028 RMK A01 T01140021  RH  053%=      5-min Rain = 0
KST1 060253Z 02014KT 11/02 A3028 RMK A01 T01140022  RH  053%=      5-min Rain = 0
KST1 060254Z 02013KT 11/02 A3028 RMK A01 T01130023  RH  054%=      5-min Rain = 0
KST1 060255Z 01013KT 11/02 A3028 RMK A01 T01120023  RH  054%=      5-min Rain = 0
KST1 060256Z 01014KT 11/02 A3028 RMK A01 T01120024  RH  055%=      5-min Rain = 0
KST1 060257Z 01015KT 11/02 A3028 RMK A01 T01110023  RH  055%=      5-min Rain = 0
KST1 060258Z 01014KT 11/02 A3028 RMK A01 T01110024  RH  055%=      5-min Rain = 0
KST1 060259Z 01012KT 11/02 A3028 RMK A01 T01110023  RH  055%=      5-min Rain = 0
KST1 060300Z 01012KT 11/02 A3028 RMK A01 T01090023  RH  055%=      5-min Rain = 0
KST1 060301Z 01011KT 11/02 A3029 RMK A01 T01080022  RH  055%=      5-min Rain = 0
KST1 060302Z 01011KT 11/02 A3029 RMK A01 T01070022  RH  056%=      5-min Rain = 0
KST1 060303Z 01011KT 11/02 A3029 RMK A01 T01060022  RH  056%=      5-min Rain = 0
KST1 060304Z 01011KT 11/02 A3029 RMK A01 T01060022  RH  056%=      5-min Rain = 0
KST1 060305Z 01011KT 11/02 A3029 RMK A01 T01060023  RH  056%=      5-min Rain = 0
KST1 060306Z 02012KT 11/02 A3029 RMK A01 T01050023  RH  057%=      5-min Rain = 0
KST1 060307Z 02014KT 11/02 A3029 RMK A01 T01060023  RH  057%=      5-min Rain = 0
KST1 060308Z 02014KT 11/02 A3029 RMK A01 T01070024  RH  056%=      5-min Rain = 0
KST1 060309Z 02017KT 11/02 A3029 RMK A01 T01080023  RH  056%=      5-min Rain = 0
KST1 060310Z 02017KT 11/02 A3029 RMK A01 T01090023  RH  055%=      5-min Rain = 0
KST1 060311Z 02018KT 11/02 A3029 RMK A01 T01080022  RH  055%=      5-min Rain = 0
KST1 060312Z 02016G21KT 11/02 A3029 RMK A01 T01070021  RH  055%=      5-min Rain = 0
KST1 060313Z 02016KT 11/02 A3029 RMK A01 T01060020  RH  055%=      5-min Rain = 0
KST1 060314Z 02016KT 11/02 A3029 RMK A01 T01060020  RH  055%=      5-min Rain = 0
KST1 060315Z 01015KT 11/02 A3029 RMK A01 T01060020  RH  055%=      5-min Rain = 0
KST1 060316Z 01016KT 11/02 A3029 RMK A01 T01060020  RH  056%=      5-min Rain = 0
KST1 060317Z 01015KT 11/02 A3029 RMK A01 T01050020  RH  056%=      5-min Rain = 0
KST1 060318Z 01014KT 11/02 A3029 RMK A01 T01050020  RH  056%=      5-min Rain = 0
KST1 060319Z 01015KT 10/02 A3029 RMK A01 T01040020  RH  056%=      5-min Rain = 0
KST1 060320Z 01014KT 10/02 A3029 RMK A01 T01040020  RH  056%=      5-min Rain = 0
KST1 060321Z 01015KT 10/02 A3029 RMK A01 T01040020  RH  056%=      5-min Rain = 0
KST1 060322Z 01014KT 10/02 A3029 RMK A01 T01030020  RH  056%=      5-min Rain = 0
KST1 060323Z 01014KT 10/02 A3029 RMK A01 T01030020  RH  056%=      5-min Rain = 0
KST1 060324Z 01014KT 10/02 A3029 RMK A01 T01020020  RH  057%=      5-min Rain = 0
KST1 060325Z 01013KT 10/02 A3029 RMK A01 T01020020  RH  057%=      5-min Rain = 0
KST1 060326Z 02012KT 10/02 A3029 RMK A01 T01010019  RH  057%=      5-min Rain = 0
KST1 060327Z 02012KT 10/02 A3029 RMK A01 T01000019  RH  057%=      5-min Rain = 0
KST1 060328Z 01012KT 10/02 A3029 RMK A01 T00990019  RH  057%=      5-min Rain = 0
KST1 060329Z 01011KT 10/02 A3029 RMK A01 T00990019  RH  058%=      5-min Rain = 0
KST1 060330Z 01011KT 10/02 A3029 RMK A01 T00980019  RH  058%=      5-min Rain = 0
KST1 060331Z 01011KT 10/02 A3029 RMK A01 T00970019  RH  058%=      5-min Rain = 0
KST1 060332Z 01011KT 10/02 A3029 RMK A01 T00970018  RH  058%=      5-min Rain = 0
KST1 060333Z 01010G15KT 10/02 A303 RMK A01 T00960018  RH  058%=      5-min Rain = 0
KST1 060334Z 01012KT 10/02 A303 RMK A01 T00960019  RH  059%=      5-min Rain = 0
KST1 060335Z 01011KT 10/02 A303 RMK A01 T00970019  RH  058%=      5-min Rain = 0
KST1 060336Z 01011KT 10/02 A303 RMK A01 T00970019  RH  058%=      5-min Rain = 0
KST1 060337Z 01011KT 10/02 A303 RMK A01 T00970019  RH  058%=      5-min Rain = 0
KST1 060338Z 01010KT 10/02 A303 RMK A01 T00960019  RH  059%=      5-min Rain = 0
KST1 060339Z 01011KT 10/02 A303 RMK A01 T00960019  RH  059%=      5-min Rain = 0
KST1 060340Z 01011KT 10/02 A303 RMK A01 T00950019  RH  059%=      5-min Rain = 0
KST1 060341Z 01011KT 10/02 A303 RMK A01 T00950020  RH  059%=      5-min Rain = 0
KST1 060342Z 01010KT 10/02 A303 RMK A01 T00950019  RH  059%=      5-min Rain = 0
KST1 060343Z 01010KT 09/02 A303 RMK A01 T00940020  RH  060%=      5-min Rain = 0
KST1 060344Z 01010KT 09/02 A303 RMK A01 T00940019  RH  060%=      5-min Rain = 0
KST1 060345Z 01010KT 09/02 A303 RMK A01 T00940020  RH  060%=      5-min Rain = 0
KST1 060346Z 01011KT 09/02 A303 RMK A01 T00940020  RH  060%=      5-min Rain = 0
KST1 060347Z 01011KT 09/02 A303 RMK A01 T00930020  RH  060%=      5-min Rain = 0
KST1 060348Z 01010KT 09/02 A303 RMK A01 T00930020  RH  060%=      5-min Rain = 0
KST1 060349Z 01010KT 09/02 A303 RMK A01 T00930020  RH  060%=      5-min Rain = 0
KST1 060350Z 01011KT 09/02 A303 RMK A01 T00920020  RH  061%=      5-min Rain = 0
KST1 060351Z 01011KT 09/02 A303 RMK A01 T00920021  RH  061%=      5-min Rain = 0
KST1 060352Z 01011KT 09/02 A303 RMK A01 T00920021  RH  061%=      5-min Rain = 0
KST1 060353Z 01011KT 09/02 A303 RMK A01 T00920021  RH  061%=      5-min Rain = 0
KST1 060354Z 01011KT 09/02 A303 RMK A01 T00920021  RH  061%=      5-min Rain = 0
KST1 060355Z 01011KT 09/02 A303 RMK A01 T00920021  RH  061%=      5-min Rain = 0
KST1 060356Z 01011KT 09/02 A303 RMK A01 T00920022  RH  061%=      5-min Rain = 0
KST1 060357Z 01011KT 09/02 A303 RMK A01 T00930022  RH  061%=      5-min Rain = 0
KST1 060358Z 01010KT 09/02 A303 RMK A01 T00920021  RH  061%=      5-min Rain = 0
KST1 060359Z 01010KT 09/02 A303 RMK A01 T00920021  RH  061%=      5-min Rain = 0
KST1 060400Z 01010KT 09/02 A303 RMK A01 T00920022  RH  062%=      5-min Rain = 0
KST1 060401Z 01010KT 09/02 A303 RMK A01 T00910021  RH  062%=      5-min Rain = 0
KST1 060402Z 01010KT 09/02 A303 RMK A01 T00900021  RH  062%=      5-min Rain = 0
KST1 060403Z 01010KT 09/02 A303 RMK A01 T00890021  RH  062%=      5-min Rain = 0
KST1 060404Z 01010KT 09/02 A303 RMK A01 T00890021  RH  062%=      5-min Rain = 0
KST1 060405Z 01010KT 09/02 A303 RMK A01 T00890021  RH  062%=      5-min Rain = 0
KST1 060406Z 01009KT 09/02 A303 RMK A01 T00880021  RH  063%=      5-min Rain = 0
KST1 060407Z 01009KT 09/02 A303 RMK A01 T00880020  RH  063%=      5-min Rain = 0
KST1 060408Z 01009KT 09/02 A303 RMK A01 T00860020  RH  063%=      5-min Rain = 0
KST1 060409Z 01008KT 09/02 A303 RMK A01 T00860019  RH  063%=      5-min Rain = 0
KST1 060410Z 01008KT 09/02 A303 RMK A01 T00850019  RH  063%=      5-min Rain = 0
KST1 060411Z 01008KT 08/02 A303 RMK A01 T00840019  RH  064%=      5-min Rain = 0
KST1 060412Z 01008KT 08/02 A303 RMK A01 T00830019  RH  064%=      5-min Rain = 0
KST1 060413Z 01008KT 08/02 A303 RMK A01 T00830019  RH  064%=      5-min Rain = 0
KST1 060414Z 01009KT 08/02 A303 RMK A01 T00830019  RH  064%=      5-min Rain = 0
KST1 060415Z 01009KT 08/02 A303 RMK A01 T00820018  RH  064%=      5-min Rain = 0
KST1 060416Z 01009KT 08/02 A303 RMK A01 T00820018  RH  064%=      5-min Rain = 0
KST1 060417Z 01008KT 08/02 A303 RMK A01 T00820018  RH  064%=      5-min Rain = 0
KST1 060418Z 00009KT 08/02 A303 RMK A01 T00810017  RH  064%=      5-min Rain = 0
KST1 060419Z 00009KT 08/02 A303 RMK A01 T00800017  RH  064%=      5-min Rain = 0
KST1 060420Z 00009KT 08/02 A303 RMK A01 T00800017  RH  064%=      5-min Rain = 0
KST1 060421Z 00009KT 08/02 A303 RMK A01 T00800018  RH  065%=      5-min Rain = 0
KST1 060422Z 00009KT 08/02 A303 RMK A01 T00800018  RH  065%=      5-min Rain = 0
KST1 060423Z 00009KT 08/02 A303 RMK A01 T00800017  RH  065%=      5-min Rain = 0
KST1 060424Z 00008KT 08/02 A303 RMK A01 T00800018  RH  065%=      5-min Rain = 0
KST1 060425Z 00009KT 08/02 A303 RMK A01 T00790018  RH  065%=      5-min Rain = 0
KST1 060426Z 00008KT 08/02 A303 RMK A01 T00790017  RH  065%=      5-min Rain = 0
KST1 060427Z 00009KT 08/02 A303 RMK A01 T00780017  RH  065%=      5-min Rain = 0
KST1 060428Z 00009KT 08/02 A303 RMK A01 T00780017  RH  065%=      5-min Rain = 0
KST1 060429Z 00009KT 08/02 A303 RMK A01 T00780017  RH  065%=      5-min Rain = 0
KST1 060430Z 00009KT 08/02 A303 RMK A01 T00770017  RH  065%=      5-min Rain = 0
KST1 060431Z 00009KT 08/02 A303 RMK A01 T00770016  RH  065%=      5-min Rain = 0
KST1 060432Z 01008KT 08/02 A303 RMK A01 T00760016  RH  066%=      5-min Rain = 0
KST1 060433Z 00009KT 08/02 A303 RMK A01 T00760016  RH  066%=      5-min Rain = 0
KST1 060434Z 00009KT 08/02 A303 RMK A01 T00760016  RH  066%=      5-min Rain = 0
KST1 060435Z 00009KT 08/02 A303 RMK A01 T00760016  RH  066%=      5-min Rain = 0
KST1 060436Z 00008KT 08/02 A303 RMK A01 T00760016  RH  066%=      5-min Rain = 0
KST1 060437Z 00009KT 08/02 A303 RMK A01 T00760016  RH  066%=      5-min Rain = 0
KST1 060438Z 00009KT 08/02 A303 RMK A01 T00750016  RH  066%=      5-min Rain = 0
KST1 060439Z 00009KT 08/02 A303 RMK A01 T00750016  RH  066%=      5-min Rain = 0
KST1 060440Z 00008KT 08/02 A303 RMK A01 T00750016  RH  066%=      5-min Rain = 0
KST1 060441Z 00009KT 07/02 A303 RMK A01 T00740016  RH  067%=      5-min Rain = 0
KST1 060442Z 00009KT 07/02 A303 RMK A01 T00740016  RH  067%=      5-min Rain = 0
KST1 060443Z 00008KT 07/02 A303 RMK A01 T00740016  RH  067%=      5-min Rain = 0
KST1 060444Z 00008KT 07/02 A303 RMK A01 T00730016  RH  067%=      5-min Rain = 0
KST1 060445Z 36008KT 07/02 A303 RMK A01 T00730017  RH  067%=      5-min Rain = 0
KST1 060446Z 36008KT 07/02 A303 RMK A01 T00730016  RH  067%=      5-min Rain = 0
KST1 060447Z 00008KT 07/02 A303 RMK A01 T00730017  RH  068%=      5-min Rain = 0
KST1 060448Z 00008KT 07/02 A303 RMK A01 T00720017  RH  068%=      5-min Rain = 0
KST1 060449Z 00008KT 07/02 A303 RMK A01 T00720017  RH  068%=      5-min Rain = 0
KST1 060450Z 00008KT 07/02 A303 RMK A01 T00720017  RH  068%=      5-min Rain = 0
KST1 060451Z 36008KT 07/02 A303 RMK A01 T00720017  RH  068%=      5-min Rain = 0
KST1 060452Z 00008KT 07/02 A303 RMK A01 T00720017  RH  068%=      5-min Rain = 0
KST1 060453Z 00008KT 07/02 A303 RMK A01 T00720018  RH  068%=      5-min Rain = 0
KST1 060454Z 00008KT 07/02 A303 RMK A01 T00720017  RH  068%=      5-min Rain = 0
KST1 060455Z 00008KT 07/02 A303 RMK A01 T00720017  RH  068%=      5-min Rain = 0
KST1 060456Z 00008KT 07/02 A303 RMK A01 T00710018  RH  069%=      5-min Rain = 0
KST1 060457Z 00008KT 07/02 A303 RMK A01 T00710018  RH  069%=      5-min Rain = 0
KST1 060458Z 00008KT 07/02 A303 RMK A01 T00710018  RH  069%=      5-min Rain = 0
KST1 060459Z 00008KT 07/02 A303 RMK A01 T00710018  RH  069%=      5-min Rain = 0
KST1 060500Z 00008KT 07/02 A303 RMK A01 T00710018  RH  069%=      5-min Rain = 0
KST1 060501Z 00007KT 07/02 A303 RMK A01 T00720019  RH  069%=      5-min Rain = 0
KST1 060502Z 00007KT 07/02 A303 RMK A01 T00720018  RH  069%=      5-min Rain = 0
KST1 060503Z 01007KT 07/02 A303 RMK A01 T00720018  RH  069%=      5-min Rain = 0
KST1 060504Z 00008KT 07/02 A303 RMK A01 T00710018  RH  069%=      5-min Rain = 0
KST1 060505Z 00008KT 07/02 A303 RMK A01 T00710018  RH  069%=      5-min Rain = 0
KST1 060506Z 00007KT 07/02 A303 RMK A01 T00710018  RH  069%=      5-min Rain = 0
KST1 060507Z 00008KT 07/02 A303 RMK A01 T00700018  RH  069%=      5-min Rain = 0
KST1 060508Z 00008KT 07/02 A303 RMK A01 T00700018  RH  069%=      5-min Rain = 0
KST1 060509Z 00007KT 07/02 A303 RMK A01 T00690018  RH  070%=      5-min Rain = 0
KST1 060510Z 00007KT 07/02 A303 RMK A01 T00690017  RH  070%=      5-min Rain = 0
KST1 060511Z 00008KT 07/02 A303 RMK A01 T00680017  RH  070%=      5-min Rain = 0
KST1 060512Z 00008KT 07/02 A303 RMK A01 T00670017  RH  070%=      5-min Rain = 0
KST1 060513Z 01008KT 07/02 A303 RMK A01 T00670017  RH  070%=      5-min Rain = 0
KST1 060514Z 01008KT 07/02 A303 RMK A01 T00670017  RH  070%=      5-min Rain = 0
KST1 060515Z 00008KT 07/02 A303 RMK A01 T00670017  RH  070%=      5-min Rain = 0
KST1 060516Z 00008KT 07/02 A303 RMK A01 T00670017  RH  070%=      5-min Rain = 0
KST1 060517Z 01008KT 07/02 A303 RMK A01 T00660017  RH  071%=      5-min Rain = 0
KST1 060518Z 01008KT 07/02 A303 RMK A01 T00660016  RH  071%=      5-min Rain = 0
KST1 060519Z 01008KT 07/02 A303 RMK A01 T00650016  RH  071%=      5-min Rain = 0
KST1 060520Z 01008KT 07/02 A303 RMK A01 T00650016  RH  071%=      5-min Rain = 0
KST1 060521Z 01009KT 07/02 A303 RMK A01 T00650016  RH  071%=      5-min Rain = 0
KST1 060522Z 01008KT 06/02 A303 RMK A01 T00640016  RH  071%=      5-min Rain = 0
KST1 060523Z 01008KT 06/02 A303 RMK A01 T00640017  RH  072%=      5-min Rain = 0
KST1 060524Z 01008KT 06/02 A303 RMK A01 T00630016  RH  072%=      5-min Rain = 0
KST1 060525Z 01009KT 06/02 A303 RMK A01 T00630016  RH  072%=      5-min Rain = 0
KST1 060526Z 01009KT 06/02 A303 RMK A01 T00620016  RH  072%=      5-min Rain = 0
KST1 060527Z 01009KT 06/02 A303 RMK A01 T00620016  RH  072%=      5-min Rain = 0
KST1 060528Z 01009KT 06/02 A303 RMK A01 T00620016  RH  072%=      5-min Rain = 0
KST1 060529Z 01009KT 06/02 A303 RMK A01 T00610015  RH  072%=      5-min Rain = 0
KST1 060530Z 01009KT 06/02 A303 RMK A01 T00610015  RH  072%=      5-min Rain = 0
KST1 060531Z 01008KT 06/02 A303 RMK A01 T00610015  RH  072%=      5-min Rain = 0
KST1 060532Z 01008KT 06/02 A303 RMK A01 T00610015  RH  072%=      5-min Rain = 0
KST1 060533Z 01008KT 06/02 A303 RMK A01 T00610015  RH  072%=      5-min Rain = 0
KST1 060534Z 01009KT 06/02 A303 RMK A01 T00600015  RH  073%=      5-min Rain = 0
KST1 060535Z 01009KT 06/02 A303 RMK A01 T00610016  RH  073%=      5-min Rain = 0
KST1 060536Z 01009KT 06/02 A303 RMK A01 T00600015  RH  073%=      5-min Rain = 0
KST1 060537Z 01009KT 06/02 A303 RMK A01 T00610016  RH  073%=      5-min Rain = 0
KST1 060538Z 01010KT 06/02 A303 RMK A01 T00610017  RH  073%=      5-min Rain = 0
KST1 060539Z 01010KT 06/02 A303 RMK A01 T00620017  RH  073%=      5-min Rain = 0
KST1 060540Z 01010KT 06/02 A303 RMK A01 T00630017  RH  072%=      5-min Rain = 0
KST1 060541Z 01010KT 06/02 A303 RMK A01 T00630017  RH  072%=      5-min Rain = 0
KST1 060542Z 01010KT 06/02 A303 RMK A01 T00630017  RH  072%=      5-min Rain = 0
KST1 060543Z 01010KT 06/02 A303 RMK A01 T00630016  RH  072%=      5-min Rain = 0
KST1 060544Z 01010KT 06/02 A303 RMK A01 T00630017  RH  072%=      5-min Rain = 0
KST1 060545Z 01010KT 06/02 A303 RMK A01 T00630017  RH  072%=      5-min Rain = 0
KST1 060546Z 01010KT 06/02 A303 RMK A01 T00630017  RH  072%=      5-min Rain = 0
KST1 060547Z 01009KT 06/02 A303 RMK A01 T00630016  RH  072%=      5-min Rain = 0
KST1 060548Z 01009KT 06/02 A303 RMK A01 T00620015  RH  072%=      5-min Rain = 0
KST1 060549Z 01009KT 06/02 A303 RMK A01 T00610015  RH  072%=      5-min Rain = 0
KST1 060550Z 01009KT 06/01 A303 RMK A01 T00600014  RH  073%=      5-min Rain = 0
KST1 060551Z 01009KT 06/01 A303 RMK A01 T00590014  RH  073%=      5-min Rain = 0
KST1 060552Z 01009KT 06/01 A303 RMK A01 T00580014  RH  073%=      5-min Rain = 0
KST1 060553Z 01009KT 06/01 A303 RMK A01 T00580014  RH  073%=      5-min Rain = 0
KST1 060554Z 01009KT 06/01 A303 RMK A01 T00570014  RH  073%=      5-min Rain = 0
KST1 060555Z 01008KT 06/01 A303 RMK A01 T00560013  RH  073%=      5-min Rain = 0
KST1 060556Z 01007KT 06/01 A303 RMK A01 T00550012  RH  074%=      5-min Rain = 0
KST1 060557Z 01008KT 05/01 A303 RMK A01 T00540011  RH  074%=      5-min Rain = 0
KST1 060558Z 00008KT 05/01 A303 RMK A01 T00530011  RH  074%=      5-min Rain = 0
KST1 060559Z 00008KT 05/01 A303 RMK A01 T00530011  RH  074%=      5-min Rain = 0

Page generated in 0.0653 seconds.